N525HA / N525HA 7700 Squawk Report (20th of April, 2019)

Time Lat Lon Altitude Heading Speed Vertical Rate
2019-04-20 08:18:34 GMT 49.433426 -2.591066 -75 92 0 -640
2019-04-20 08:18:21 GMT 49.433426 -2.591177 -75 90 3 -640
2019-04-20 08:18:13 GMT 49.433430 -2.591364 -75 104 5 -640
2019-04-20 08:18:00 GMT 49.433647 -2.591771 -75 149 8 -640
2019-04-20 08:17:50 GMT 49.434082 -2.591906 -75 177 12 -640
2019-04-20 08:17:41 GMT 49.434574 -2.591942 -75 180 14 -640
2019-04-20 08:16:17 GMT 49.434586 -2.615903 -75 86 102 -640
2019-04-20 08:16:08 GMT 49.434380 -2.622763 25 87 103 -640
2019-04-20 08:15:58 GMT 49.434082 -2.629997 125 92 105 -640
2019-04-20 08:15:47 GMT 49.435169 -2.637832 225 114 107 -512
2019-04-20 08:15:37 GMT 49.437927 -2.644742 300 130 112 -1088
2019-04-20 08:15:26 GMT 49.441830 -2.650749 425 142 119 -576
2019-04-20 08:15:16 GMT 49.447136 -2.655574 500 158 136 -64
2019-04-20 08:15:05 GMT 49.453979 -2.657726 575 179 154 -832
2019-04-20 08:14:58 GMT 49.459145 -2.657207 725 192 160 -1472
2019-04-20 08:14:55 GMT 49.461411 -2.656451 800 195 160 -1472
2019-04-20 08:14:47 GMT 49.466904 -2.653704 1,025 211 173 -704
2019-04-20 08:14:44 GMT 49.469013 -2.652233 1,000 207 170 -832
2019-04-20 08:14:37 GMT 49.474411 -2.647199 1,075 221 214 -320
2019-04-20 08:14:34 GMT 49.476322 -2.644958 1,075 219 189 448
2019-04-20 08:14:28 GMT 49.480373 -2.639836 1,025 221 210 64
2019-04-20 08:14:23 GMT 49.484024 -2.635056 1,000 221 216 -448
2019-04-20 08:14:18 GMT 49.488190 -2.629635 1,050 220 222 -640
2019-04-20 08:14:13 GMT 49.491966 -2.624767 1,100 220 227 -512
2019-04-20 08:14:10 GMT 49.494339 -2.621798 1,125 219 228 -512
2019-04-20 08:14:07 GMT 49.496994 -2.618458 1,150 219 231 -576
2019-04-20 08:14:02 GMT 49.501328 -2.613301 1,175 218 237 -448
2019-04-20 08:13:58 GMT 49.505173 -2.608675 1,200 218 244 -448
2019-04-20 08:13:52 GMT 49.510029 -2.603166 1,250 216 250 -576
2019-04-20 08:13:49 GMT 49.513733 -2.599134 1,275 212 256 -640
2019-04-20 08:13:44 GMT 49.517616 -2.595297 1,325 213 256 -640
2019-04-20 08:13:39 GMT 49.525902 -2.588394 1,450 207 262 -1344
2019-04-20 08:13:29 GMT 49.544037 -2.576366 1,800 202 266 -1344
2019-04-20 08:13:20 GMT 49.544037 -2.576366 1,850 199 268 -1600
2019-04-20 08:13:16 GMT 49.549164 -2.573620 1,900 198 268 -1920
2019-04-20 08:13:10 GMT 49.556160 -2.570355 2,075 197 267 -2304
2019-04-20 08:13:04 GMT 49.562817 -2.567386 2,300 197 265 -2304
2019-04-20 08:12:58 GMT 49.570080 -2.564194 2,525 196 264 -1536
2019-04-20 08:12:55 GMT 49.573383 -2.562784 2,575 195 264 -1536
2019-04-20 08:12:48 GMT 49.582184 -2.559443 2,800 194 264 -1728
2019-04-20 08:12:45 GMT 49.586002 -2.558033 2,875 194 265 -1728
2019-04-20 08:12:38 GMT 49.593750 -2.555261 3,100 193 263 -1792
2019-04-20 08:12:35 GMT 49.597404 -2.553950 3,175 193 263 -1600
2019-04-20 08:12:28 GMT 49.605881 -2.550924 3,400 206 273 -1664
2019-04-20 08:12:25 GMT 49.609955 -2.549406 3,450 195 266 -1408
2019-04-20 08:12:17 GMT 49.618515 -2.545648 3,625 198 270 -1536
2019-04-20 08:12:14 GMT 49.622684 -2.543483 3,700 202 271 -1600
2019-04-20 08:12:07 GMT 49.630463 -2.538420 3,925 207 274 -1600
2019-04-20 08:12:04 GMT 49.633717 -2.535912 3,975 209 275 -1600
2019-04-20 08:11:57 GMT 49.642281 -2.528860 4,150 209 277 -1600
2019-04-20 08:11:53 GMT 49.646751 -2.525074 4,275 209 277 -1664
2019-04-20 08:11:50 GMT 49.650383 -2.522030 4,350 209 278 -1664
2019-04-20 08:11:47 GMT 49.653316 -2.519507 4,450 210 279 -1664
2019-04-20 08:11:44 GMT 49.656830 -2.516447 4,525 210 280 -1728
2019-04-20 08:11:38 GMT 49.663605 -2.510521 4,700 210 281 -1792
2019-04-20 08:11:34 GMT 49.667908 -2.506690 4,825 210 282 -2176
2019-04-20 08:11:29 GMT 49.673904 -2.501413 5,025 210 282 -2304
2019-04-20 08:11:24 GMT 49.679672 -2.496354 5,200 211 280 -2304
2019-04-20 08:11:17 GMT 49.687271 -2.489415 5,450 212 278 -2368
2019-04-20 08:11:14 GMT 49.690884 -2.486028 5,600 212 278 -2368
2019-04-20 08:11:03 GMT 49.703220 -2.474596 6,050 211 276 -2496
2019-04-20 08:10:53 GMT 49.713730 -2.464985 6,425 210 284 -2880
2019-04-20 08:10:46 GMT 49.721981 -2.457671 6,950 210 284 -2880
2019-04-20 08:10:41 GMT 49.726776 -2.453440 6,850 210 283 -2944
2019-04-20 08:10:38 GMT 49.730072 -2.450457 7,225 211 285 -2752
2019-04-20 08:10:35 GMT 49.735432 -2.445646 7,300 210 286 -2688
2019-04-20 08:10:32 GMT 49.737167 -2.444097 7,375 210 287 -2688
2019-04-20 08:10:26 GMT 49.744354 -2.437808 7,650 210 289 -2752
2019-04-20 08:10:22 GMT 49.749397 -2.433472 7,850 209 291 -2816
2019-04-20 08:10:18 GMT 49.753510 -2.429930 8,150 209 294 -3264
2019-04-20 08:10:15 GMT 49.756939 -2.427014 8,150 209 294 -3264
2019-04-20 08:10:12 GMT 49.761223 -2.423376 8,325 209 294 -3456
2019-04-20 08:10:07 GMT 49.766602 -2.418799 8,575 210 294 -3648
2019-04-20 08:10:04 GMT 49.771233 -2.414765 8,875 210 294 -3072
2019-04-20 08:10:00 GMT 49.774769 -2.411722 9,100 210 294 -3136
2019-04-20 08:09:56 GMT 49.779739 -2.407379 9,350 210 295 -2944
2019-04-20 08:09:51 GMT 49.786102 -2.401958 9,475 209 297 -2816
2019-04-20 08:09:45 GMT 49.793484 -2.395762 9,900 209 300 -2624
2019-04-20 08:09:41 GMT 49.797729 -2.392128 10,200 210 304 -2688
2019-04-20 08:09:36 GMT 49.803635 -2.386997 10,100 211 307 -2944
2019-04-20 08:09:33 GMT 49.808659 -2.382474 10,300 211 309 -3200
2019-04-20 08:09:30 GMT 49.813202 -2.378179 10,300 212 310 -3648
2019-04-20 08:09:25 GMT 49.817596 -2.373986 10,725 213 311 -3712
2019-04-20 08:09:20 GMT 49.823822 -2.367987 11,200 213 311 -3968
2019-04-20 08:09:15 GMT 49.830120 -2.361764 11,400 213 310 -3968
2019-04-20 08:09:10 GMT 49.836136 -2.355628 11,750 215 309 -3904
2019-04-20 08:09:05 GMT 49.842083 -2.348847 12,350 227 309 -3328
2019-04-20 08:09:02 GMT 49.844925 -2.345210 12,225 224 308 -3392
2019-04-20 08:08:59 GMT 49.847946 -2.340811 13,350 229 311 -3200
2019-04-20 08:08:55 GMT 49.852001 -2.334224 12,875 229 311 -3200
2019-04-20 08:08:52 GMT 49.856277 -2.326789 12,875 229 311 -3200
2019-04-20 08:08:48 GMT 49.858200 -2.323536 12,975 229 310 -3264
2019-04-20 08:08:42 GMT 49.864429 -2.312696 13,725 229 314 -3008
2019-04-20 08:08:38 GMT 49.867783 -2.306832 13,475 229 313 -3072
2019-04-20 08:08:34 GMT 49.872715 -2.298295 13,800 229 316 -3008
2019-04-20 08:08:30 GMT 49.878395 -2.288422 13,950 229 320 -3008
2019-04-20 08:08:27 GMT 49.882874 -2.280675 14,375 229 336 -3008
2019-04-20 08:08:23 GMT 49.882874 -2.280675 14,250 229 324 -3008
2019-04-20 08:08:20 GMT 49.886902 -2.273664 14,475 229 329 -3008
2019-04-20 08:08:17 GMT 49.888916 -2.270195 14,575 229 330 -3008
2019-04-20 08:08:13 GMT 49.893402 -2.262316 14,825 229 335 -3072
2019-04-20 08:08:10 GMT 49.895805 -2.258210 14,900 229 337 -3008
2019-04-20 08:08:07 GMT 49.899628 -2.251547 15,100 229 339 -2944
2019-04-20 08:08:04 GMT 49.903534 -2.244774 15,275 229 341 -2624
2019-04-20 08:07:59 GMT 49.908562 -2.236015 15,475 229 342 -2048
2019-04-20 08:07:53 GMT 49.913910 -2.226683 15,625 229 343 -2048
2019-04-20 08:07:50 GMT 49.917206 -2.220973 15,700 229 344 -2112
2019-04-20 08:07:46 GMT 49.921326 -2.213817 15,825 229 345 -2048
2019-04-20 08:07:41 GMT 49.926670 -2.204540 16,125 229 349 -2112
2019-04-20 08:07:38 GMT 49.930069 -2.198567 16,100 229 347 -2112
2019-04-20 08:07:35 GMT 49.932953 -2.193579 16,250 229 349 -2112
2019-04-20 08:07:32 GMT 49.936169 -2.187912 16,350 230 352 -2048
2019-04-20 08:07:28 GMT 49.940781 -2.179847 16,425 229 351 -2112
2019-04-20 08:07:25 GMT 49.944031 -2.174137 16,600 229 352 -2112
2019-04-20 08:07:22 GMT 49.947571 -2.167870 16,675 225 355 -2112
2019-04-20 08:07:18 GMT 49.951855 -2.160224 17,000 230 352 -2048
2019-04-20 08:07:14 GMT 49.955952 -2.152949 17,000 230 353 -2048
2019-04-20 08:07:11 GMT 49.958466 -2.148347 17,100 230 352 -2048
2019-04-20 08:07:08 GMT 49.961975 -2.141973 17,300 230 352 -2048
2019-04-20 08:07:04 GMT 49.966286 -2.134094 17,375 229 354 -2048
2019-04-20 08:07:00 GMT 49.971081 -2.125706 17,500 226 355 -2112
2019-04-20 08:06:56 GMT 49.976200 -2.117837 17,650 222 357 -2112
2019-04-20 08:06:53 GMT 49.978180 -2.115085 17,700 219 357 -2112
2019-04-20 08:06:50 GMT 49.982346 -2.109664 17,825 219 358 -2048
2019-04-20 08:06:46 GMT 49.988354 -2.102843 18,025 215 359 -2112
2019-04-20 08:06:43 GMT 49.992821 -2.098389 18,275 209 361 -2176
2019-04-20 08:06:39 GMT 49.998138 -2.093618 18,200 209 361 -2176
2019-04-20 08:06:36 GMT 50.002689 -2.089778 20,000 209 365 0
2019-04-20 08:06:31 GMT 50.009354 -2.084294 19,350 208 366 -2112
2019-04-20 08:06:28 GMT 50.014515 -2.080053 19,350 208 366 -2112
2019-04-20 08:06:25 GMT 50.019150 -2.076271 18,675 208 365 -2176
2019-04-20 08:06:22 GMT 50.022892 -2.073150 18,800 208 366 -2112
2019-04-20 08:06:18 GMT 50.035675 -2.062611 19,100 208 371 -2048
2019-04-20 08:06:14 GMT 50.035675 -2.062611 19,100 209 370 -2176
2019-04-20 08:06:09 GMT 50.042633 -2.056901 19,350 208 373 -1984
2019-04-20 08:06:05 GMT 50.051010 -2.049989 19,425 208 373 -1792
2019-04-20 08:06:02 GMT 50.052658 -2.048589 19,875 208 371 -2112
2019-04-20 08:05:59 GMT 50.057693 -2.044469 19,575 209 372 -2112
2019-04-20 08:05:56 GMT 50.062271 -2.040710 19,725 209 371 -2112
2019-04-20 08:05:53 GMT 50.067398 -2.036405 20,000 209 365 0
2019-04-20 08:05:50 GMT 50.072239 -2.032471 20,000 209 365 0
2019-04-20 08:05:47 GMT 50.076710 -2.028759 19,950 208 366 -640
2019-04-20 08:05:44 GMT 50.080902 -2.025243 20,000 209 365 0
2019-04-20 08:05:41 GMT 50.086018 -2.021039 20,000 209 365 0
2019-04-20 08:05:38 GMT 50.089874 -2.017870 20,000 209 365 0
2019-04-20 08:05:35 GMT 50.094498 -2.014040 20,000 209 365 0
2019-04-20 08:05:32 GMT 50.098572 -2.010715 20,000 209 365 0
2019-04-20 08:05:27 GMT 50.105255 -2.005149 20,000 209 365 0
2019-04-20 08:05:24 GMT 50.115856 -1.996394 20,000 209 365 0
2019-04-20 08:05:17 GMT 50.120373 -1.992757 20,000 209 365 0
2019-04-20 08:05:13 GMT 50.126938 -1.987263 20,000 209 365 0
2019-04-20 08:05:07 GMT 50.136337 -1.979563 20,000 209 365 0
2019-04-20 08:05:04 GMT 50.140823 -1.975804 20,000 209 365 0
2019-04-20 08:05:01 GMT 50.144535 -1.972714 20,000 209 365 0
2019-04-20 08:04:58 GMT 50.149796 -1.968432 20,000 209 365 0
2019-04-20 08:04:55 GMT 50.154282 -1.964746 20,000 209 365 0
2019-04-20 08:04:51 GMT 50.159912 -1.960048 20,000 209 365 0
2019-04-20 08:04:46 GMT 50.172180 -1.949929 20,000 209 365 0
2019-04-20 08:04:43 GMT 50.172180 -1.949929 20,000 209 365 0
2019-04-20 08:04:40 GMT 50.175293 -1.947327 20,000 209 365 0
2019-04-20 08:04:37 GMT 50.179962 -1.943496 20,000 209 365 0
2019-04-20 08:04:34 GMT 50.185921 -1.938567 20,000 209 365 0
2019-04-20 08:04:31 GMT 50.189644 -1.935450 20,000 209 365 0
2019-04-20 08:04:28 GMT 50.193832 -1.932035 20,000 209 365 0
2019-04-20 08:04:25 GMT 50.199188 -1.927581 20,000 209 365 0
2019-04-20 08:04:22 GMT 50.203701 -1.923869 20,000 209 365 0
2019-04-20 08:04:19 GMT 50.208023 -1.920295 20,000 209 365 0
2019-04-20 08:04:15 GMT 50.214130 -1.915184 20,000 209 365 0
2019-04-20 08:04:12 GMT 50.218460 -1.911621 20,000 209 365 0
2019-04-20 08:04:08 GMT 50.224323 -1.906796 20,000 209 365 0
2019-04-20 08:04:04 GMT 50.230003 -1.902119 20,000 209 365 0
2019-04-20 08:04:01 GMT 50.238327 -1.895142 20,000 209 365 0
2019-04-20 08:03:58 GMT 50.238327 -1.895142 20,000 209 365 0
2019-04-20 08:03:54 GMT 50.245228 -1.889500 20,000 209 365 0
2019-04-20 08:03:51 GMT 50.250301 -1.885269 20,000 209 365 0
2019-04-20 08:03:48 GMT 50.253281 -1.882819 20,000 209 365 0
2019-04-20 08:03:43 GMT 50.261490 -1.875988 20,000 209 365 0
2019-04-20 08:03:40 GMT 50.270782 -1.868254 20,000 209 365 0
2019-04-20 08:03:37 GMT 50.270782 -1.868254 20,000 209 365 0
2019-04-20 08:03:33 GMT 50.276001 -1.863917 20,000 209 366 0
2019-04-20 08:03:30 GMT 50.281219 -1.859581 20,000 209 366 0
2019-04-20 08:03:27 GMT 50.286751 -1.854982 20,000 209 366 0
2019-04-20 08:03:23 GMT 50.291382 -1.851124 20,000 209 366 0
2019-04-20 08:03:20 GMT 50.294998 -1.848088 20,000 209 366 0
2019-04-20 08:03:17 GMT 50.300529 -1.843476 20,000 209 366 0
2019-04-20 08:03:14 GMT 50.305435 -1.839343 20,000 209 366 0
2019-04-20 08:03:11 GMT 50.309189 -1.836276 20,000 209 366 0
2019-04-20 08:03:08 GMT 50.314545 -1.831748 20,000 209 366 0
2019-04-20 08:03:05 GMT 50.319214 -1.827923 20,000 209 366 0
2019-04-20 08:03:02 GMT 50.323059 -1.824670 20,000 209 366 0
2019-04-20 08:02:58 GMT 50.328735 -1.819900 20,000 209 366 0
2019-04-20 08:02:55 GMT 50.332626 -1.816647 20,000 209 366 0
2019-04-20 08:02:52 GMT 50.337868 -1.812299 20,000 209 366 0
2019-04-20 08:02:49 GMT 50.341873 -1.808913 20,000 209 366 0
2019-04-20 08:02:45 GMT 50.348602 -1.803276 20,000 209 366 0
2019-04-20 08:02:42 GMT 50.353973 -1.798789 20,000 209 366 0
2019-04-20 08:02:39 GMT 50.356979 -1.796337 20,000 209 366 0
2019-04-20 08:02:34 GMT 50.364120 -1.790326 20,000 209 366 0
2019-04-20 08:02:31 GMT 50.369659 -1.785712 20,000 209 366 0
2019-04-20 08:02:28 GMT 50.375290 -1.780942 20,000 209 366 0
2019-04-20 08:02:25 GMT 50.379776 -1.777183 20,000 209 366 0
2019-04-20 08:02:22 GMT 50.382477 -1.774942 20,000 209 366 0
2019-04-20 08:02:18 GMT 50.387955 -1.770358 20,000 209 366 0
2019-04-20 08:02:15 GMT 50.394104 -1.765185 20,000 209 365 0
2019-04-20 08:02:11 GMT 50.403305 -1.757451 20,000 209 366 0
2019-04-20 08:02:08 GMT 50.403305 -1.757451 20,000 209 366 0
2019-04-20 08:02:04 GMT 50.410023 -1.751874 20,000 209 365 0
2019-04-20 08:01:58 GMT 50.418076 -1.745119 20,000 209 366 0
2019-04-20 08:01:55 GMT 50.422405 -1.741481 20,000 209 365 0
2019-04-20 08:01:52 GMT 50.428940 -1.735984 20,000 209 365 0
2019-04-20 08:01:48 GMT 50.433289 -1.732370 20,000 209 365 0
2019-04-20 08:01:44 GMT 50.440418 -1.726412 20,000 209 365 0
2019-04-20 08:01:41 GMT 50.444870 -1.722613 20,000 209 365 0
2019-04-20 08:01:38 GMT 50.448288 -1.719806 20,000 209 365 0
2019-04-20 08:01:35 GMT 50.454388 -1.714684 20,000 209 365 0
2019-04-20 08:01:32 GMT 50.456955 -1.712566 20,000 209 365 0
2019-04-20 08:01:28 GMT 50.462906 -1.707579 20,000 209 365 0
2019-04-20 08:01:25 GMT 50.468071 -1.703178 20,000 209 365 64
2019-04-20 08:01:22 GMT 50.471985 -1.699912 20,000 209 365 0
2019-04-20 08:01:19 GMT 50.476406 -1.696200 20,000 209 364 0
2019-04-20 08:01:16 GMT 50.481033 -1.692328 20,000 209 365 0
2019-04-20 08:01:13 GMT 50.485336 -1.688714 20,000 209 365 0
2019-04-20 08:01:10 GMT 50.489208 -1.685436 20,000 209 365 0
2019-04-20 08:01:07 GMT 50.494141 -1.681354 20,000 209 365 0
2019-04-20 08:01:04 GMT 50.498749 -1.677439 20,000 209 365 0
2019-04-20 08:01:00 GMT 50.503777 -1.673188 20,000 209 365 0
2019-04-20 08:00:57 GMT 50.509140 -1.668693 20,000 209 364 0
2019-04-20 08:00:53 GMT 50.515976 -1.662944 20,000 209 364 0
2019-04-20 08:00:50 GMT 50.524109 -1.656044 20,000 209 364 0
2019-04-20 08:00:47 GMT 50.524109 -1.656044 20,000 209 364 0
2019-04-20 08:00:44 GMT 50.529011 -1.651958 20,000 209 364 0
2019-04-20 08:00:41 GMT 50.532852 -1.648672 20,000 209 364 0
2019-04-20 08:00:38 GMT 50.536736 -1.645425 20,000 209 364 0
2019-04-20 08:00:35 GMT 50.541904 -1.641046 20,000 209 364 0
2019-04-20 08:00:31 GMT 50.547867 -1.636023 20,000 209 364 0
2019-04-20 08:00:28 GMT 50.551540 -1.632954 20,000 209 364 0
2019-04-20 08:00:25 GMT 50.558395 -1.627133 20,000 209 364 0
2019-04-20 08:00:22 GMT 50.561363 -1.624640 20,000 209 364 0
2019-04-20 08:00:19 GMT 50.565491 -1.621134 20,000 209 363 0
2019-04-20 08:00:16 GMT 50.570255 -1.617143 20,000 209 363 0
2019-04-20 08:00:13 GMT 50.575424 -1.612822 20,000 209 363 0
2019-04-20 08:00:10 GMT 50.578674 -1.610075 20,000 209 363 0
2019-04-20 08:00:07 GMT 50.583115 -1.606317 20,000 209 363 0
2019-04-20 08:00:04 GMT 50.587990 -1.602222 20,000 209 363 0
2019-04-20 08:00:01 GMT 50.591949 -1.598808 20,000 209 362 0
2019-04-20 07:59:58 GMT 50.596558 -1.594948 20,000 209 362 0
2019-04-20 07:59:55 GMT 50.601398 -1.590865 20,000 209 361 0
2019-04-20 07:59:52 GMT 50.605225 -1.587597 20,000 209 361 0
2019-04-20 07:59:49 GMT 50.609776 -1.583813 20,000 209 361 0
2019-04-20 07:59:46 GMT 50.614334 -1.579935 20,000 209 361 0
2019-04-20 07:59:43 GMT 50.619644 -1.575425 20,000 209 361 0
2019-04-20 07:59:40 GMT 50.624908 -1.570973 20,000 209 360 0
2019-04-20 07:59:37 GMT 50.626968 -1.569238 20,000 209 358 0
2019-04-20 07:59:33 GMT 50.632416 -1.564684 20,000 209 360 0
2019-04-20 07:59:30 GMT 50.637680 -1.560203 20,000 209 359 0
2019-04-20 07:59:27 GMT 50.642036 -1.556495 20,000 209 358 64
2019-04-20 07:59:24 GMT 50.645855 -1.553229 20,000 209 357 0
2019-04-20 07:59:21 GMT 50.650497 -1.549289 20,000 209 356 0
2019-04-20 07:59:17 GMT 50.656311 -1.544374 20,000 209 357 0
2019-04-20 07:59:14 GMT 50.661392 -1.540037 20,000 209 340 64
2019-04-20 07:59:11 GMT 50.667068 -1.535267 20,000 209 354 0
2019-04-20 07:59:07 GMT 50.672436 -1.530685 20,000 209 355 0
2019-04-20 07:59:04 GMT 50.677597 -1.526283 20,000 209 354 0
2019-04-20 07:59:01 GMT 50.680210 -1.524048 20,000 209 354 0
2019-04-20 07:58:58 GMT 50.685379 -1.519699 20,000 209 353 0
2019-04-20 07:58:54 GMT 50.696732 -1.510026 20,000 209 352 0
2019-04-20 07:58:50 GMT 50.696732 -1.510026 20,000 209 351 0
2019-04-20 07:58:47 GMT 50.700165 -1.507131 20,000 209 351 0
2019-04-20 07:58:44 GMT 50.704422 -1.503494 20,000 209 347 0
2019-04-20 07:58:41 GMT 50.709259 -1.499405 20,000 209 276 1728
2019-04-20 07:58:38 GMT 50.712845 -1.496353 20,000 209 342 0
2019-04-20 07:58:35 GMT 50.716919 -1.492879 20,000 209 347 64
2019-04-20 07:58:32 GMT 50.720444 -1.489909 20,000 209 346 0
2019-04-20 07:58:29 GMT 50.729599 -1.482115 20,000 209 343 0
2019-04-20 07:58:26 GMT 50.729599 -1.482115 20,000 209 343 0
2019-04-20 07:58:23 GMT 50.733765 -1.478552 20,000 209 341 0
2019-04-20 07:58:20 GMT 50.737236 -1.475601 20,000 209 334 64
2019-04-20 07:58:17 GMT 50.743195 -1.470566 20,000 209 338 64
2019-04-20 07:58:14 GMT 50.746536 -1.467714 20,000 209 337 0
2019-04-20 07:58:11 GMT 50.750645 -1.464233 20,000 209 335 64
2019-04-20 07:58:08 GMT 50.755417 -1.460142 20,000 209 331 64
2019-04-20 07:58:05 GMT 50.758278 -1.457748 20,000 209 333 64
2019-04-20 07:58:02 GMT 50.762970 -1.453684 20,000 209 329 64
2019-04-20 07:57:58 GMT 50.767960 -1.449453 20,000 209 327 0
2019-04-20 07:57:55 GMT 50.771942 -1.446038 20,000 209 325 64
2019-04-20 07:57:52 GMT 50.776199 -1.442401 20,000 209 324 64
2019-04-20 07:57:48 GMT 50.786270 -1.433790 20,000 209 320 64
2019-04-20 07:57:45 GMT 50.786270 -1.433790 20,000 209 318 64
2019-04-20 07:57:42 GMT 50.789005 -1.431427 20,000 209 315 64
2019-04-20 07:57:39 GMT 50.794006 -1.427183 20,000 209 315 64
2019-04-20 07:57:35 GMT 50.798813 -1.423026 20,000 209 308 64
2019-04-20 07:57:32 GMT 50.801479 -1.420746 20,000 209 302 64
2019-04-20 07:57:29 GMT 50.805111 -1.417618 20,000 209 302 64
2019-04-20 07:57:26 GMT 50.813957 -1.410065 20,000 209 299 128
2019-04-20 07:57:22 GMT 50.813957 -1.410065 19,975 209 277 1664
2019-04-20 07:57:19 GMT 50.817581 -1.406918 19,550 209 278 1664
2019-04-20 07:57:16 GMT 50.822205 -1.402910 19,975 209 290 384
2019-04-20 07:57:13 GMT 50.824711 -1.400757 19,950 209 287 768
2019-04-20 07:57:10 GMT 50.828201 -1.397788 19,875 209 283 1088
2019-04-20 07:57:07 GMT 50.831322 -1.395035 19,650 209 280 1472
2019-04-20 07:57:04 GMT 50.835480 -1.391478 19,825 209 281 1280
2019-04-20 07:57:01 GMT 50.839600 -1.387915 19,725 209 280 1472
2019-04-20 07:56:58 GMT 50.841751 -1.386059 19,675 209 279 1600
2019-04-20 07:56:55 GMT 50.845596 -1.382718 19,575 209 278 1664
2019-04-20 07:56:52 GMT 50.849426 -1.379395 19,525 209 278 1664
2019-04-20 07:56:49 GMT 50.852268 -1.376953 19,300 208 275 1856
2019-04-20 07:56:46 GMT 50.855526 -1.374207 19,375 209 277 1664
2019-04-20 07:56:43 GMT 50.859016 -1.371155 19,225 209 275 1728
2019-04-20 07:56:40 GMT 50.862488 -1.368169 19,200 209 276 1728
2019-04-20 07:56:37 GMT 50.865829 -1.365274 19,075 209 274 1792
2019-04-20 07:56:34 GMT 50.868980 -1.362534 19,075 209 275 1792
2019-04-20 07:56:31 GMT 50.872334 -1.359711 18,925 209 275 1792
2019-04-20 07:56:28 GMT 50.875359 -1.357117 18,875 209 275 1792
2019-04-20 07:56:25 GMT 50.879150 -1.353842 18,750 209 274 1856
2019-04-20 07:56:22 GMT 50.882492 -1.351021 17,850 238 257 1728
2019-04-20 07:56:19 GMT 50.885414 -1.348572 18,625 208 275 1856
2019-04-20 07:56:16 GMT 50.889267 -1.345380 18,475 208 275 1792
2019-04-20 07:56:13 GMT 50.893982 -1.341520 18,250 208 274 1728
2019-04-20 07:56:10 GMT 50.896683 -1.339293 18,300 208 275 1664
2019-04-20 07:56:07 GMT 50.899193 -1.337280 18,250 207 274 1600
2019-04-20 07:56:04 GMT 50.903149 -1.334152 17,975 207 273 1472
2019-04-20 07:56:01 GMT 50.905518 -1.332315 17,950 213 268 1536
2019-04-20 07:55:58 GMT 50.910782 -1.328381 17,950 225 266 1536
2019-04-20 07:55:55 GMT 50.913254 -1.326451 17,925 225 266 1536
2019-04-20 07:55:52 GMT 50.916603 -1.323853 17,850 208 270 1408
2019-04-20 07:55:49 GMT 50.919258 -1.321640 17,800 211 269 1472
2019-04-20 07:55:46 GMT 50.923122 -1.317978 17,650 228 266 1600
2019-04-20 07:55:43 GMT 50.926071 -1.314425 17,600 223 266 1536
2019-04-20 07:55:40 GMT 50.928864 -1.310342 17,575 225 266 1536
2019-04-20 07:55:37 GMT 50.933670 -1.300395 17,400 238 261 1664
2019-04-20 07:55:34 GMT 50.933670 -1.300395 17,375 238 261 1600
2019-04-20 07:55:31 GMT 50.935085 -1.296997 17,325 238 261 1664
2019-04-20 07:55:28 GMT 50.937332 -1.291339 17,250 238 260 1664
2019-04-20 07:55:25 GMT 50.939041 -1.287231 17,100 238 259 1728
2019-04-20 07:55:21 GMT 50.941555 -1.280975 17,025 238 258 1792
2019-04-20 07:55:18 GMT 50.943466 -1.276196 16,950 238 258 1728
2019-04-20 07:55:15 GMT 50.945232 -1.271744 16,900 238 256 1792
2019-04-20 07:55:12 GMT 50.947586 -1.265803 16,725 238 256 1792
2019-04-20 07:55:08 GMT 50.949829 -1.260087 16,650 238 254 1728
2019-04-20 07:55:05 GMT 50.951340 -1.256301 16,625 238 254 1728
2019-04-20 07:55:02 GMT 50.953751 -1.250153 16,450 239 252 1728
2019-04-20 07:54:59 GMT 50.955334 -1.246109 16,300 239 251 1792
2019-04-20 07:54:55 GMT 50.958267 -1.238556 16,250 239 249 1856
2019-04-20 07:54:52 GMT 50.959808 -1.234700 16,175 239 249 1856
2019-04-20 07:54:49 GMT 50.961666 -1.229858 16,000 239 249 1920
2019-04-20 07:54:46 GMT 50.963203 -1.225815 15,800 239 248 1856
2019-04-20 07:54:43 GMT 50.965485 -1.219864 15,900 239 248 1856
2019-04-20 07:54:40 GMT 50.966995 -1.215994 15,800 239 247 1792
2019-04-20 07:54:37 GMT 50.968552 -1.211985 15,600 239 246 1792
2019-04-20 07:54:34 GMT 50.970428 -1.207086 15,600 239 245 1792
2019-04-20 07:54:31 GMT 50.972187 -1.202469 15,550 239 245 1856
2019-04-20 07:54:28 GMT 50.974045 -1.197732 15,500 239 244 1920
2019-04-20 07:54:25 GMT 50.976059 -1.192388 15,325 239 244 2048
2019-04-20 07:54:22 GMT 50.977867 -1.187668 15,225 239 243 1984
2019-04-20 07:54:19 GMT 50.979450 -1.183548 15,125 239 243 2048
2019-04-20 07:54:16 GMT 50.980984 -1.179581 15,025 239 243 2112
2019-04-20 07:54:13 GMT 50.982788 -1.174869 14,875 239 243 2176
2019-04-20 07:54:10 GMT 50.984344 -1.170786 14,750 239 242 2240
2019-04-20 07:54:07 GMT 50.985901 -1.166629 14,550 239 242 2176
2019-04-20 07:54:03 GMT 50.988831 -1.158909 14,525 240 243 2176
2019-04-20 07:54:00 GMT 50.990204 -1.155243 14,425 240 243 2112
2019-04-20 07:53:57 GMT 50.991898 -1.150744 14,350 240 243 2048
2019-04-20 07:53:54 GMT 50.993591 -1.146141 14,275 240 243 2048
2019-04-20 07:53:51 GMT 50.995743 -1.140500 14,150 240 243 1984
2019-04-20 07:53:48 GMT 50.997208 -1.136565 12,700 241 233 1664
2019-04-20 07:53:45 GMT 50.999542 -1.130256 13,925 239 241 1920
2019-04-20 07:53:41 GMT 51.001514 -1.125107 13,800 239 241 1920
2019-04-20 07:53:37 GMT 51.003239 -1.120605 13,700 239 240 1856
2019-04-20 07:53:34 GMT 51.005264 -1.115335 13,575 239 239 1792
2019-04-20 07:53:31 GMT 51.008377 -1.107244 13,400 239 238 1792
2019-04-20 07:53:25 GMT 51.010777 -1.100922 13,325 239 238 1792
2019-04-20 07:53:21 GMT 51.013367 -1.094179 13,200 239 239 1664
2019-04-20 07:53:18 GMT 51.014641 -1.090927 13,075 239 238 1472
2019-04-20 07:53:15 GMT 51.016388 -1.086236 13,050 239 238 1408
2019-04-20 07:53:12 GMT 51.017990 -1.082079 13,000 240 237 1344
2019-04-20 07:53:09 GMT 51.019485 -1.078033 12,925 240 236 1408
2019-04-20 07:53:06 GMT 51.021652 -1.072206 12,825 240 235 1536
2019-04-20 07:53:03 GMT 51.022476 -1.069831 12,825 241 235 1600
2019-04-20 07:53:00 GMT 51.024418 -1.064453 12,650 241 233 1664
2019-04-20 07:52:57 GMT 51.025677 -1.061020 12,575 241 232 1664
2019-04-20 07:52:54 GMT 51.028282 -1.053772 12,500 241 231 1664
2019-04-20 07:52:48 GMT 51.030945 -1.046374 12,375 240 231 1792
2019-04-20 07:52:45 GMT 51.032227 -1.042885 12,300 240 231 1792
2019-04-20 07:52:42 GMT 51.033962 -1.038055 12,025 240 230 1856
2019-04-20 07:52:39 GMT 51.035172 -1.034851 12,125 240 229 1920
2019-04-20 07:52:36 GMT 51.037674 -1.028038 11,900 240 229 1984
2019-04-20 07:52:33 GMT 51.039093 -1.024252 11,850 240 229 1984
2019-04-20 07:52:30 GMT 51.041977 -1.016384 11,625 240 230 1920
2019-04-20 07:52:27 GMT 51.041977 -1.016384 11,700 240 230 1856
2019-04-20 07:52:24 GMT 51.044155 -1.010590 11,550 240 229 1792
2019-04-20 07:52:21 GMT 51.045834 -1.006088 11,475 239 228 1856
2019-04-20 07:52:17 GMT 51.047516 -1.001612 11,375 239 227 1920
2019-04-20 07:52:14 GMT 51.049416 -0.996628 11,250 239 227 1984
2019-04-20 07:52:10 GMT 51.051277 -0.991745 11,125 239 227 2112
2019-04-20 07:52:07 GMT 51.052963 -0.987359 10,875 239 226 2240
2019-04-20 07:52:04 GMT 51.054749 -0.982831 10,825 239 227 2304
2019-04-20 07:52:01 GMT 51.056446 -0.978470 10,825 238 228 2112
2019-04-20 07:51:58 GMT 51.057816 -0.974888 10,725 238 227 2176
2019-04-20 07:51:55 GMT 51.059830 -0.969766 10,600 238 228 2112
2019-04-20 07:51:52 GMT 51.061340 -0.966129 10,450 237 228 2048
2019-04-20 07:51:49 GMT 51.063148 -0.961838 10,400 234 229 1984
2019-04-20 07:51:46 GMT 51.065506 -0.956850 10,075 230 227 2112
2019-04-20 07:51:43 GMT 51.066826 -0.954437 10,200 226 228 2176
2019-04-20 07:51:39 GMT 51.069294 -0.950317 10,000 210 228 2048
2019-04-20 07:51:36 GMT 51.071949 -0.946960 10,000 214 228 1984
2019-04-20 07:51:33 GMT 51.075066 -0.944214 9,800 203 227 2112
2019-04-20 07:51:30 GMT 51.081444 -0.939941 9,675 203 227 2112
2019-04-20 07:51:27 GMT 51.081444 -0.939941 9,575 203 227 2112
2019-04-20 07:51:24 GMT 51.084091 -0.938218 9,525 203 227 2112
2019-04-20 07:51:20 GMT 51.088474 -0.935364 9,375 203 227 1984
2019-04-20 07:51:14 GMT 51.093639 -0.931931 9,125 204 226 1984
2019-04-20 07:51:10 GMT 51.100021 -0.927677 9,000 203 225 1984
2019-04-20 07:51:07 GMT 51.104534 -0.924606 8,500 204 225 2176
2019-04-20 07:51:04 GMT 51.104534 -0.924606 8,825 204 225 2048
2019-04-20 07:51:00 GMT 51.108166 -0.922165 8,700 204 224 2240
2019-04-20 07:50:57 GMT 51.110073 -0.920868 8,650 204 224 2240
2019-04-20 07:50:54 GMT 51.113892 -0.918198 8,475 204 225 2176
2019-04-20 07:50:51 GMT 51.116451 -0.916443 8,325 204 225 2176
2019-04-20 07:50:48 GMT 51.119293 -0.914463 8,275 204 225 2176
2019-04-20 07:50:44 GMT 51.122829 -0.912094 8,100 204 224 2176
2019-04-20 07:50:41 GMT 51.124649 -0.910826 7,675 204 219 1728
2019-04-20 07:50:38 GMT 51.128788 -0.908051 7,450 204 225 1920
2019-04-20 07:50:35 GMT 51.130966 -0.906521 7,825 204 225 1920
2019-04-20 07:50:32 GMT 51.133957 -0.904541 7,775 204 224 1920
2019-04-20 07:50:27 GMT 51.138332 -0.901566 7,550 204 223 1920
2019-04-20 07:50:24 GMT 51.141171 -0.899582 7,500 204 222 1856
2019-04-20 07:50:21 GMT 51.144058 -0.897598 7,350 204 215 1664
2019-04-20 07:50:18 GMT 51.147923 -0.894928 7,200 204 219 1728
2019-04-20 07:50:15 GMT 51.150238 -0.893307 7,200 204 219 1728
2019-04-20 07:50:12 GMT 51.152576 -0.891724 7,000 204 217 1664
2019-04-20 07:50:09 GMT 51.155369 -0.889816 7,050 204 216 1664
2019-04-20 07:50:06 GMT 51.158302 -0.887833 6,950 204 214 1664
2019-04-20 07:50:03 GMT 51.163834 -0.884028 6,775 204 211 1984
2019-04-20 07:50:00 GMT 51.163834 -0.884028 6,600 204 210 2176
2019-04-20 07:49:57 GMT 51.167221 -0.881653 6,675 204 210 2048
2019-04-20 07:49:54 GMT 51.169430 -0.880127 6,500 204 209 2368
2019-04-20 07:49:51 GMT 51.171570 -0.878677 6,475 204 209 2368
2019-04-20 07:49:48 GMT 51.174866 -0.876382 6,300 204 209 2496
2019-04-20 07:49:45 GMT 51.176876 -0.875015 6,200 204 210 2560
2019-04-20 07:49:42 GMT 51.179123 -0.873487 6,150 204 210 2560
2019-04-20 07:49:39 GMT 51.183060 -0.870741 5,875 204 211 2176
2019-04-20 07:49:36 GMT 51.185028 -0.869330 5,750 203 211 2112
2019-04-20 07:49:33 GMT 51.188095 -0.867326 5,750 203 212 2048
2019-04-20 07:49:30 GMT 51.189926 -0.866138 5,675 203 211 1984
2019-04-20 07:49:27 GMT 51.194149 -0.863342 5,450 203 209 1792
2019-04-20 07:49:21 GMT 51.199501 -0.859756 5,325 204 207 1664
2019-04-20 07:49:18 GMT 51.200993 -0.858688 5,275 204 206 1664
2019-04-20 07:49:15 GMT 51.203613 -0.856934 5,175 204 203 1728
2019-04-20 07:49:12 GMT 51.206951 -0.854568 5,075 203 200 1728
2019-04-20 07:49:09 GMT 51.208786 -0.853370 5,000 203 200 1728
2019-04-20 07:49:06 GMT 51.212627 -0.850830 4,750 203 198 1856
2019-04-20 07:49:03 GMT 51.213867 -0.849956 4,625 203 198 2048
2019-04-20 07:49:00 GMT 51.216492 -0.848236 4,750 203 196 2176
2019-04-20 07:48:57 GMT 51.218948 -0.846690 4,625 202 196 2432
2019-04-20 07:48:54 GMT 51.221466 -0.845056 4,425 202 197 2816
2019-04-20 07:48:51 GMT 51.224777 -0.842972 4,300 203 198 2752
2019-04-20 07:48:47 GMT 51.227665 -0.841064 4,175 203 200 2816
2019-04-20 07:48:44 GMT 51.230225 -0.839310 3,775 204 205 3008
2019-04-20 07:48:41 GMT 51.232319 -0.837936 3,900 205 207 3008
2019-04-20 07:48:38 GMT 51.234833 -0.836223 3,525 205 209 2944
2019-04-20 07:48:35 GMT 51.238495 -0.833551 2,875 206 217 2176
2019-04-20 07:48:32 GMT 51.241150 -0.831620 3,500 205 210 2816
2019-04-20 07:48:29 GMT 51.244423 -0.829086 3,250 206 217 2176
2019-04-20 07:48:25 GMT 51.247311 -0.826874 3,175 206 216 2368
2019-04-20 07:48:22 GMT 51.249313 -0.825348 3,025 207 218 2112
2019-04-20 07:48:17 GMT 51.254105 -0.821525 2,600 208 215 1344
2019-04-20 07:48:14 GMT 51.256805 -0.819298 2,700 208 217 1472
2019-04-20 07:48:11 GMT 51.262066 -0.814896 2,650 208 215 1344
2019-04-20 07:48:08 GMT 51.262066 -0.814896 2,550 208 215 1344
2019-04-20 07:48:04 GMT 51.265869 -0.811801 2,500 207 211 896
2019-04-20 07:48:01 GMT 51.267609 -0.810390 2,425 206 208 832
2019-04-20 07:47:58 GMT 51.271706 -0.807266 2,425 205 208 832
2019-04-20 07:47:54 GMT 51.274685 -0.805206 2,350 201 204 1152
2019-04-20 07:47:51 GMT 51.276535 -0.804080 2,325 199 203 1280
2019-04-20 07:47:47 GMT 51.283527 -0.801163 2,200 192 202 1088
2019-04-20 07:47:44 GMT 51.283527 -0.801163 2,125 188 200 1152
2019-04-20 07:47:41 GMT 51.285828 -0.800666 2,125 187 200 1152
2019-04-20 07:47:37 GMT 51.292793 -0.799561 2,000 186 197 1472
2019-04-20 07:47:34 GMT 51.292793 -0.799561 1,900 183 195 1344
2019-04-20 07:47:31 GMT 51.295486 -0.799107 1,875 185 197 1344
2019-04-20 07:47:26 GMT 51.300846 -0.798569 1,650 183 194 1280
2019-04-20 07:47:22 GMT 51.303635 -0.798365 1,550 182 192 1216
2019-04-20 07:47:19 GMT 51.305923 -0.798290 1,625 182 191 1216
2019-04-20 07:47:16 GMT 51.308666 -0.798111 1,575 182 190 1280
2019-04-20 07:47:13 GMT 51.310947 -0.798111 1,525 179 188 1408
2019-04-20 07:47:10 GMT 51.313553 -0.798264 1,475 168 181 1920
2019-04-20 07:47:05 GMT 51.318535 -0.799713 1,250 159 178 1792
2019-04-20 07:46:59 GMT 51.322723 -0.802765 1,175 154 178 1728
2019-04-20 07:46:56 GMT 51.324600 -0.804971 1,000 119 164 1728
2019-04-20 07:46:53 GMT 51.326309 -0.807724 925 128 167 1792
2019-04-20 07:46:50 GMT 51.327438 -0.810167 750 103 158 1536
2019-04-20 07:46:47 GMT 51.328445 -0.813137 775 116 162 1664
2019-04-20 07:46:42 GMT 51.329334 -0.819168 650 94 155 1600
2019-04-20 07:46:38 GMT 51.329197 -0.823441 525 82 150 2176
2019-04-20 07:46:33 GMT 51.328125 -0.829468 350 68 148 2432
We lost coverage of the aircraft here for a total of 48 minutes
2019-04-20 06:58:38 GMT 51.325550 -0.839136 0 146 9 0
2019-04-20 06:58:29 GMT 51.325680 -0.839653 0 73 11 0
2019-04-20 06:58:08 GMT 51.325344 -0.841271 0 70 14 0
2019-04-20 06:57:59 GMT 51.325134 -0.842266 0 73 22 0
2019-04-20 06:57:47 GMT 51.324715 -0.844326 0 73 37 0
2019-04-20 06:57:34 GMT 51.323650 -0.849436 0 73 94 0
2019-04-20 06:57:27 GMT 51.322540 -0.854707 -150 71 105 -640
2019-04-20 06:57:17 GMT 51.320908 -0.862274 -50 71 113 -832
2019-04-20 06:57:14 GMT 51.320297 -0.865248 0 72 113 -704
2019-04-20 06:57:10 GMT 51.319611 -0.868514 200 65 104 -768
2019-04-20 06:57:07 GMT 51.319000 -0.871506 100 71 112 -640
2019-04-20 06:57:02 GMT 51.318348 -0.874786 150 71 110 -448
2019-04-20 06:56:56 GMT 51.317413 -0.879055 200 71 109 -512
2019-04-20 06:56:51 GMT 51.316628 -0.882874 325 65 104 -768
2019-04-20 06:56:46 GMT 51.315788 -0.886993 275 68 106 -576
2019-04-20 06:56:41 GMT 51.314857 -0.890427 750 64 103 -768
2019-04-20 06:56:37 GMT 51.314072 -0.893085 425 65 102 -960
2019-04-20 06:56:34 GMT 51.313385 -0.895534 450 57 102 -1152
2019-04-20 06:56:31 GMT 51.312763 -0.897369 450 57 102 -1152
2019-04-20 06:56:27 GMT 51.311459 -0.899734 550 40 107 -1216
2019-04-20 06:56:24 GMT 51.308899 -0.902364 700 27 109 -896
2019-04-20 06:56:21 GMT 51.307037 -0.903931 750 23 113 -960
2019-04-20 06:56:17 GMT 51.307037 -0.903931 725 25 112 -960
2019-04-20 06:56:11 GMT 51.303963 -0.905838 825 15 114 -1152
2019-04-20 06:56:06 GMT 51.301636 -0.906754 925 9 114 -960
2019-04-20 06:56:02 GMT 51.299450 -0.907135 975 3 114 -704
2019-04-20 06:55:56 GMT 51.296402 -0.907040 1,025 355 119 -640
2019-04-20 06:55:51 GMT 51.293106 -0.905778 1,100 341 133 -896
2019-04-20 06:55:46 GMT 51.288929 -0.903320 1,200 339 141 -640
2019-04-20 06:55:43 GMT 51.286835 -0.902023 1,225 339 142 -512
2019-04-20 06:55:40 GMT 51.286835 -0.902023 1,225 338 143 -576
2019-04-20 06:55:35 GMT 51.284225 -0.900211 1,275 336 142 -576
2019-04-20 06:55:32 GMT 51.282028 -0.898652 1,325 334 144 -256
2019-04-20 06:55:29 GMT 51.280060 -0.897167 1,325 334 144 -256
2019-04-20 06:55:26 GMT 51.278267 -0.895767 2,250 345 168 -192
2019-04-20 06:55:23 GMT 51.276917 -0.894699 1,350 334 150 -256
2019-04-20 06:55:19 GMT 51.273426 -0.891953 1,350 334 151 -64
2019-04-20 06:55:16 GMT 51.272095 -0.890932 1,350 334 152 -192
2019-04-20 06:55:12 GMT 51.269653 -0.889053 1,425 334 153 -384
2019-04-20 06:55:08 GMT 51.266464 -0.886552 1,400 335 153 -256
2019-04-20 06:55:05 GMT 51.265594 -0.885884 1,400 335 155 -384
2019-04-20 06:55:02 GMT 51.263489 -0.884325 1,450 336 158 -192
2019-04-20 06:54:59 GMT 51.261154 -0.882544 1,450 336 158 -192
2019-04-20 06:54:55 GMT 51.258808 -0.880814 1,475 337 159 -128
2019-04-20 06:54:52 GMT 51.253876 -0.877793 1,500 344 162 0
2019-04-20 06:54:48 GMT 51.253876 -0.877793 1,525 343 162 -128
2019-04-20 06:54:45 GMT 51.248661 -0.875244 2,250 345 168 -192
2019-04-20 06:54:41 GMT 51.248661 -0.875244 1,525 344 163 0
2019-04-20 06:54:38 GMT 51.246754 -0.874405 1,525 344 164 -64
2019-04-20 06:54:35 GMT 51.244125 -0.873116 1,525 344 166 -128
2019-04-20 06:54:30 GMT 51.240417 -0.871483 1,525 346 171 -256
2019-04-20 06:54:27 GMT 51.237991 -0.870667 1,550 349 177 -640
2019-04-20 06:54:24 GMT 51.235474 -0.869850 1,575 350 179 -768
2019-04-20 06:54:20 GMT 51.232956 -0.869182 1,600 353 181 -1088
2019-04-20 06:54:15 GMT 51.227898 -0.868530 1,750 0 183 -1408
2019-04-20 06:54:10 GMT 51.223988 -0.868607 1,875 10 184 -1472
2019-04-20 06:54:07 GMT 51.221375 -0.869108 1,925 10 184 -1472
2019-04-20 06:54:02 GMT 51.217163 -0.870667 2,050 18 185 -1600
2019-04-20 06:53:58 GMT 51.214142 -0.872522 2,125 26 185 -1600
2019-04-20 06:53:55 GMT 51.211899 -0.874304 2,425 45 184 -1536
2019-04-20 06:53:52 GMT 51.208904 -0.877228 2,350 41 185 -1536
2019-04-20 06:53:49 GMT 51.206818 -0.879649 2,425 39 186 -1600
2019-04-20 06:53:44 GMT 51.201454 -0.887833 2,575 46 183 -1536
2019-04-20 06:53:40 GMT 51.201454 -0.887833 2,850 46 182 -1536
2019-04-20 06:53:37 GMT 51.199722 -0.890858 2,725 47 177 -1472
2019-04-20 06:53:33 GMT 51.197826 -0.894089 2,825 46 174 -1216
2019-04-20 06:53:30 GMT 51.195869 -0.897293 2,875 46 171 -576
2019-04-20 06:53:26 GMT 51.194195 -0.900192 2,900 46 170 0
2019-04-20 06:53:23 GMT 51.192612 -0.902863 2,925 46 170 0
2019-04-20 06:53:19 GMT 51.190201 -0.906966 2,925 46 170 0
2019-04-20 06:53:12 GMT 51.186676 -0.912904 2,925 46 169 0
2019-04-20 06:53:09 GMT 51.184433 -0.916690 2,925 46 169 0
2019-04-20 06:53:06 GMT 51.182232 -0.920258 2,925 46 169 0
2019-04-20 06:53:03 GMT 51.181732 -0.921144 2,925 46 169 0
2019-04-20 06:53:00 GMT 51.180084 -0.923891 2,925 46 169 -64
2019-04-20 06:52:57 GMT 51.178116 -0.927009 2,925 43 171 0
2019-04-20 06:52:53 GMT 51.176010 -0.930201 2,925 43 173 0
2019-04-20 06:52:50 GMT 51.174500 -0.932502 2,925 43 174 0
2019-04-20 06:52:47 GMT 51.172302 -0.935768 2,925 43 176 0
2019-04-20 06:52:43 GMT 51.170059 -0.939183 2,925 42 179 0
2019-04-20 06:52:39 GMT 51.167984 -0.942230 2,925 40 181 0
2019-04-20 06:52:36 GMT 51.163750 -0.948105 2,925 39 182 -64
2019-04-20 06:52:33 GMT 51.163750 -0.948105 2,925 38 184 -64
2019-04-20 06:52:27 GMT 51.160400 -0.952247 2,925 37 187 -64
2019-04-20 06:52:24 GMT 51.157242 -0.956182 2,925 38 188 0
2019-04-20 06:52:21 GMT 51.155594 -0.958186 2,925 37 188 0
2019-04-20 06:52:16 GMT 51.152531 -0.962067 2,925 2 193 0
2019-04-20 06:52:12 GMT 51.149597 -0.965683 2,925 26 191 0
2019-04-20 06:52:07 GMT 51.145615 -0.969840 2,925 28 191 0
2019-04-20 06:52:04 GMT 51.141083 -0.973329 2,925 21 192 0
2019-04-20 06:51:58 GMT 51.138977 -0.974517 2,925 6 195 0
2019-04-20 06:51:54 GMT 51.134995 -0.976299 2,925 10 195 -64
2019-04-20 06:51:50 GMT 51.131161 -0.977173 2,925 7 195 0
2019-04-20 06:51:46 GMT 51.128277 -0.977631 2,925 4 193 0
2019-04-20 06:51:43 GMT 51.125252 -0.978012 2,925 0 193 0
2019-04-20 06:51:40 GMT 51.121803 -0.978165 2,925 1 193 0
2019-04-20 06:51:36 GMT 51.119011 -0.978012 2,925 357 192 64
2019-04-20 06:51:33 GMT 51.116451 -0.977631 2,925 353 190 0
2019-04-20 06:51:29 GMT 51.112198 -0.976595 2,925 348 189 0
2019-04-20 06:51:25 GMT 51.109131 -0.975482 2,925 347 188 64
2019-04-20 06:51:22 GMT 51.106628 -0.974426 2,925 346 187 0
2019-04-20 06:51:19 GMT 51.104954 -0.973740 2,925 343 186 -64
2019-04-20 06:51:16 GMT 51.102493 -0.972439 2,975 335 190 -384
2019-04-20 06:51:13 GMT 51.100204 -0.970917 3,025 335 190 -384
2019-04-20 06:51:10 GMT 51.096851 -0.968399 3,450 329 201 -1536
2019-04-20 06:51:05 GMT 51.090637 -0.962640 3,425 329 200 -1600
2019-04-20 06:51:02 GMT 51.090637 -0.962640 3,075 329 197 -1216
2019-04-20 06:50:59 GMT 51.088799 -0.960922 3,125 329 197 -1280
2019-04-20 06:50:54 GMT 51.084656 -0.956879 3,250 328 200 -1600
2019-04-20 06:50:49 GMT 51.080795 -0.953138 3,375 328 200 -1664
2019-04-20 06:50:44 GMT 51.076447 -0.948610 3,550 329 201 -1536
2019-04-20 06:50:41 GMT 51.074615 -0.946680 3,600 328 200 -1600
2019-04-20 06:50:38 GMT 51.072552 -0.944672 3,650 330 200 -1536
2019-04-20 06:50:34 GMT 51.069122 -0.941632 3,800 342 198 -1600
2019-04-20 06:50:31 GMT 51.065598 -0.939183 3,875 340 199 -1600
2019-04-20 06:50:28 GMT 51.064270 -0.938440 3,925 342 198 -1600
2019-04-20 06:50:24 GMT 51.059334 -0.936203 4,075 349 198 -1472
2019-04-20 06:50:21 GMT 51.056625 -0.935471 4,150 352 197 -1536
2019-04-20 06:50:18 GMT 51.054611 -0.935100 4,200 358 196 -1728
2019-04-20 06:50:15 GMT 51.052368 -0.935174 4,325 9 194 -1664
2019-04-20 06:50:12 GMT 51.049091 -0.935898 4,375 10 194 -1600
2019-04-20 06:50:08 GMT 51.046417 -0.936733 4,475 11 194 -1600
2019-04-20 06:50:04 GMT 51.042892 -0.937846 4,600 11 195 -1664
2019-04-20 06:50:01 GMT 51.039276 -0.939034 4,675 11 195 -1664
2019-04-20 06:49:58 GMT 51.037033 -0.939713 4,775 11 198 -1664
2019-04-20 06:49:55 GMT 51.033737 -0.940816 4,850 11 197 -1728
2019-04-20 06:49:50 GMT 51.029491 -0.942154 5,050 11 198 -1664
2019-04-20 06:49:47 GMT 51.027721 -0.942688 5,125 11 200 -1664
2019-04-20 06:49:44 GMT 51.024719 -0.943637 5,125 11 200 -1664
2019-04-20 06:49:40 GMT 51.021057 -0.944824 5,400 11 203 -1664
2019-04-20 06:49:37 GMT 51.018970 -0.945511 5,300 11 202 -1664
2019-04-20 06:49:33 GMT 51.014828 -0.946808 5,450 11 204 -1664
2019-04-20 06:49:30 GMT 51.011757 -0.947800 5,525 11 208 -1664
2019-04-20 06:49:27 GMT 51.008102 -0.948907 5,550 11 207 -1664
2019-04-20 06:49:23 GMT 51.005630 -0.949724 5,800 11 210 -1728
2019-04-20 06:49:20 GMT 50.999607 -0.951614 5,825 11 212 -1664
2019-04-20 06:49:17 GMT 50.999607 -0.951614 5,875 11 213 -1664
2019-04-20 06:49:14 GMT 50.996246 -0.952693 6,050 11 215 -1920
2019-04-20 06:49:11 GMT 50.993416 -0.953598 6,075 11 216 -1984
2019-04-20 06:49:08 GMT 50.989975 -0.954697 6,125 11 217 -2048
2019-04-20 06:49:05 GMT 50.986805 -0.955658 6,275 11 219 -2048
2019-04-20 06:49:02 GMT 50.984802 -0.956268 6,475 11 220 -1984
2019-04-20 06:48:59 GMT 50.981232 -0.957444 6,475 11 221 -2048
2019-04-20 06:48:56 GMT 50.978519 -0.958252 6,575 11 223 -1984
2019-04-20 06:48:52 GMT 50.974594 -0.959522 6,700 11 224 -2048
2019-04-20 06:48:49 GMT 50.971626 -0.960464 6,775 11 224 -2048
2019-04-20 06:48:45 GMT 50.966461 -0.962067 6,975 11 225 -2048
2019-04-20 06:48:42 GMT 50.963470 -0.963011 7,075 11 227 -2048
2019-04-20 06:48:39 GMT 50.961201 -0.963745 7,275 11 227 -2048
2019-04-20 06:48:36 GMT 50.958130 -0.964737 7,300 11 227 -2048
2019-04-20 06:48:33 GMT 50.954727 -0.965832 7,425 11 225 -2048
2019-04-20 06:48:29 GMT 50.949886 -0.967331 7,525 11 226 -2048
2019-04-20 06:48:26 GMT 50.947140 -0.968246 7,600 11 225 -2048
2019-04-20 06:48:23 GMT 50.944580 -0.969086 7,775 11 224 -2048
2019-04-20 06:48:19 GMT 50.940628 -0.970286 7,825 11 224 -2048
2019-04-20 06:48:15 GMT 50.937271 -0.971375 8,075 11 223 -2048
2019-04-20 06:48:12 GMT 50.933224 -0.972672 8,075 11 223 -1984
2019-04-20 06:48:09 GMT 50.928268 -0.974220 8,200 11 223 -1600
2019-04-20 06:48:03 GMT 50.925217 -0.975189 8,300 11 226 -1344
2019-04-20 06:48:00 GMT 50.921814 -0.976224 8,500 11 227 -1344
2019-04-20 06:47:57 GMT 50.918564 -0.977264 8,450 11 227 -1344
2019-04-20 06:47:54 GMT 50.915634 -0.978229 8,600 11 228 -1344
2019-04-20 06:47:51 GMT 50.912430 -0.979194 8,625 11 230 -1408
2019-04-20 06:47:48 GMT 50.908131 -0.980606 8,675 11 232 -1344
2019-04-20 06:47:45 GMT 50.905701 -0.981346 8,725 11 233 -1344
2019-04-20 06:47:42 GMT 50.903366 -0.982089 8,800 11 234 -1280
2019-04-20 06:47:39 GMT 50.899239 -0.983429 8,875 11 234 -1024
2019-04-20 06:47:36 GMT 50.896591 -0.984316 8,925 11 233 -704
2019-04-20 06:47:33 GMT 50.893433 -0.985355 8,950 11 230 0
2019-04-20 06:47:29 GMT 50.889221 -0.986691 8,975 11 230 -320
2019-04-20 06:47:26 GMT 50.881596 -0.989227 9,000 11 230 0
2019-04-20 06:47:23 GMT 50.881596 -0.989227 9,000 11 230 0
2019-04-20 06:47:20 GMT 50.880154 -0.989685 9,000 11 230 0
2019-04-20 06:47:17 GMT 50.875763 -0.991145 9,000 12 230 0
2019-04-20 06:47:14 GMT 50.872658 -0.992203 9,000 12 230 0
2019-04-20 06:47:11 GMT 50.869724 -0.993195 9,000 12 230 0
2019-04-20 06:47:08 GMT 50.864094 -0.995102 9,000 12 230 0
2019-04-20 06:47:05 GMT 50.864094 -0.995102 9,000 12 230 0
2019-04-20 06:46:58 GMT 50.857040 -0.997603 9,000 12 230 0
2019-04-20 06:46:55 GMT 50.852966 -0.999088 9,000 13 231 0
2019-04-20 06:46:52 GMT 50.850266 -1.000127 9,000 13 231 0
2019-04-20 06:46:48 GMT 50.846329 -1.001612 9,000 13 231 0
2019-04-20 06:46:45 GMT 50.842575 -1.003022 9,000 13 231 0
2019-04-20 06:46:42 GMT 50.839050 -1.004358 9,000 13 231 0
2019-04-20 06:46:38 GMT 50.835602 -1.005707 9,000 13 232 0
2019-04-20 06:46:35 GMT 50.831955 -1.007105 9,000 13 233 -64
2019-04-20 06:46:32 GMT 50.829849 -1.007921 9,000 13 233 0
2019-04-20 06:46:29 GMT 50.826618 -1.009140 9,000 13 233 0
2019-04-20 06:46:25 GMT 50.822010 -1.010818 9,000 12 233 0
2019-04-20 06:46:22 GMT 50.818844 -1.011963 9,000 12 234 0
2019-04-20 06:46:18 GMT 50.815521 -1.013043 9,000 10 236 0
2019-04-20 06:46:15 GMT 50.811581 -1.014328 9,000 10 235 0
2019-04-20 06:46:12 GMT 50.807877 -1.015493 9,000 10 236 0
2019-04-20 06:46:09 GMT 50.804398 -1.016458 9,000 9 237 0
2019-04-20 06:46:06 GMT 50.799522 -1.017609 9,000 7 238 0
2019-04-20 06:46:03 GMT 50.799522 -1.017609 9,000 6 238 0
2019-04-20 06:46:00 GMT 50.795147 -1.018524 9,000 12 239 0
2019-04-20 06:45:57 GMT 50.791992 -1.019130 9,000 34 237 0
2019-04-20 06:45:54 GMT 50.789234 -1.019821 9,000 11 239 0
2019-04-20 06:45:50 GMT 50.780685 -1.023510 9,000 21 239 0
2019-04-20 06:45:46 GMT 50.780182 -1.023807 9,000 19 239 0
2019-04-20 06:45:43 GMT 50.778252 -1.025162 9,000 28 238 0
2019-04-20 06:45:40 GMT 50.774570 -1.028214 9,000 35 236 0
2019-04-20 06:45:37 GMT 50.772034 -1.030636 9,000 33 237 0
2019-04-20 06:45:34 GMT 50.768372 -1.034571 9,000 35 236 0
2019-04-20 06:45:30 GMT 50.764435 -1.038950 9,000 35 236 0
2019-04-20 06:45:27 GMT 50.762650 -1.040880 9,000 35 236 0
2019-04-20 06:45:24 GMT 50.759399 -1.044443 9,000 35 236 0
2019-04-20 06:45:20 GMT 50.755764 -1.048508 9,000 35 236 0
2019-04-20 06:45:17 GMT 50.753677 -1.050827 9,000 35 236 0
2019-04-20 06:45:14 GMT 50.750923 -1.053848 9,000 35 236 0
2019-04-20 06:45:11 GMT 50.748970 -1.056061 9,000 35 234 0
2019-04-20 06:45:08 GMT 50.744873 -1.060562 9,000 35 234 0
2019-04-20 06:45:05 GMT 50.743011 -1.062630 9,000 35 234 0
2019-04-20 06:45:02 GMT 50.740356 -1.065600 9,000 35 234 0
2019-04-20 06:44:59 GMT 50.737797 -1.068497 9,000 34 234 0
2019-04-20 06:44:56 GMT 50.734955 -1.071625 9,000 35 233 0
2019-04-20 06:44:53 GMT 50.732674 -1.074142 9,025 35 229 -64
2019-04-20 06:44:47 GMT 50.727276 -1.080093 9,025 34 237 -576
2019-04-20 06:44:44 GMT 50.723831 -1.083861 9,050 35 240 -768
2019-04-20 06:44:41 GMT 50.721550 -1.086349 9,075 35 243 -896
2019-04-20 06:44:38 GMT 50.719173 -1.089020 9,100 34 249 -1152
2019-04-20 06:44:35 GMT 50.716381 -1.092072 9,125 35 250 -1216
2019-04-20 06:44:32 GMT 50.714100 -1.094589 9,175 35 252 -1280
2019-04-20 06:44:29 GMT 50.710052 -1.099091 9,250 34 256 -1472
2019-04-20 06:44:26 GMT 50.707809 -1.101528 9,375 34 256 -1472
2019-04-20 06:44:23 GMT 50.704010 -1.105685 9,425 34 256 -1472
2019-04-20 06:44:19 GMT 50.700027 -1.110065 9,525 34 256 -1472
2019-04-20 06:44:16 GMT 50.696915 -1.113479 9,600 35 257 -1472
2019-04-20 06:44:13 GMT 50.694397 -1.116300 9,675 34 259 -1536
2019-04-20 06:44:10 GMT 50.692547 -1.118317 10,050 34 265 -1536
2019-04-20 06:44:07 GMT 50.688965 -1.122208 9,875 34 262 -1472
2019-04-20 06:44:04 GMT 50.686295 -1.125134 9,875 35 276 -1472
2019-04-20 06:44:01 GMT 50.682678 -1.129142 9,950 35 264 -1536
2019-04-20 06:43:58 GMT 50.679375 -1.132812 9,975 34 267 -1472
2019-04-20 06:43:55 GMT 50.672928 -1.139832 10,125 34 269 -1472
2019-04-20 06:43:52 GMT 50.672928 -1.139832 10,175 34 272 -1536
2019-04-20 06:43:48 GMT 50.670044 -1.143012 10,275 35 278 -1472
2019-04-20 06:43:45 GMT 50.666702 -1.146698 10,325 35 277 -1472
2019-04-20 06:43:42 GMT 50.662491 -1.151324 10,475 35 277 -1472
2019-04-20 06:43:39 GMT 50.660938 -1.153045 10,475 35 276 -1472
2019-04-20 06:43:36 GMT 50.657272 -1.157106 10,525 35 276 -1472
2019-04-20 06:43:32 GMT 50.652649 -1.162238 10,950 35 278 -1408
2019-04-20 06:43:29 GMT 50.649719 -1.165490 10,725 35 277 -1536
2019-04-20 06:43:23 GMT 50.643761 -1.172197 10,875 35 280 -1472
2019-04-20 06:43:19 GMT 50.640175 -1.176279 10,950 35 281 -1472
2019-04-20 06:43:16 GMT 50.635437 -1.181609 11,075 35 280 -1472
2019-04-20 06:43:13 GMT 50.632278 -1.185150 11,175 35 280 -1472
2019-04-20 06:43:09 GMT 50.629002 -1.188825 11,200 35 278 -1408
2019-04-20 06:43:06 GMT 50.625839 -1.192388 11,300 35 280 -1472
2019-04-20 06:43:03 GMT 50.619965 -1.199028 11,450 35 281 -1472
2019-04-20 06:43:00 GMT 50.619965 -1.199028 11,550 35 281 -1472
2019-04-20 06:42:57 GMT 50.615734 -1.203745 11,500 35 282 -1472
2019-04-20 06:42:54 GMT 50.612759 -1.207086 11,750 35 283 -1536
2019-04-20 06:42:51 GMT 50.608841 -1.211532 11,725 35 283 -1536
2019-04-20 06:42:48 GMT 50.606689 -1.213917 11,875 35 286 -1472
2019-04-20 06:42:44 GMT 50.602386 -1.218760 11,875 35 286 -1472
2019-04-20 06:42:41 GMT 50.599182 -1.222374 11,925 35 286 -1472
2019-04-20 06:42:38 GMT 50.596893 -1.224903 12,075 35 287 -1472
2019-04-20 06:42:34 GMT 50.591530 -1.230988 12,100 35 286 -1536
2019-04-20 06:42:31 GMT 50.588058 -1.234878 12,150 35 286 -1536
2019-04-20 06:42:28 GMT 50.585709 -1.237521 13,850 35 281 -1472
2019-04-20 06:42:23 GMT 50.576679 -1.247691 12,400 35 284 -1536
2019-04-20 06:42:20 GMT 50.576679 -1.247691 12,450 35 285 -1472
2019-04-20 06:42:17 GMT 50.573421 -1.251328 12,525 35 284 -1536
2019-04-20 06:42:13 GMT 50.567963 -1.257429 12,725 35 283 -1536
2019-04-20 06:42:10 GMT 50.566158 -1.259493 12,725 35 283 -1536
2019-04-20 06:42:06 GMT 50.561272 -1.264987 12,725 35 283 -1536
2019-04-20 06:42:02 GMT 50.556244 -1.270628 12,925 35 283 -1536
2019-04-20 06:41:57 GMT 50.552284 -1.275082 13,125 35 283 -1472
2019-04-20 06:41:53 GMT 50.544418 -1.283916 13,150 35 281 -896
2019-04-20 06:41:50 GMT 50.544418 -1.283916 13,225 35 283 -1536
2019-04-20 06:41:46 GMT 50.540367 -1.288444 13,250 35 282 -1536
2019-04-20 06:41:42 GMT 50.535690 -1.293640 13,400 35 282 -1536
2019-04-20 06:41:38 GMT 50.530838 -1.299133 13,525 35 281 -1472
2019-04-20 06:41:35 GMT 50.528683 -1.301509 13,600 35 286 -896
2019-04-20 06:41:31 GMT 50.524448 -1.306260 13,675 35 281 -1472
2019-04-20 06:41:27 GMT 50.519608 -1.311678 13,825 35 286 -896
2019-04-20 06:41:23 GMT 50.515778 -1.315974 13,900 35 280 -896
2019-04-20 06:41:20 GMT 50.512436 -1.319696 13,900 35 281 -896
2019-04-20 06:41:16 GMT 50.508087 -1.324503 13,925 35 280 -896
2019-04-20 06:41:12 GMT 50.503124 -1.330088 14,025 35 282 -896
2019-04-20 06:41:09 GMT 50.500900 -1.332598 14,775 35 284 -896
2019-04-20 06:41:06 GMT 50.497284 -1.336646 14,100 35 283 -896
2019-04-20 06:41:03 GMT 50.494720 -1.339465 14,125 35 283 -896
2019-04-20 06:40:59 GMT 50.490463 -1.344266 14,325 35 284 -896
2019-04-20 06:40:55 GMT 50.486572 -1.348572 14,250 35 286 -896
2019-04-20 06:40:50 GMT 50.480873 -1.354881 14,375 35 288 -896
2019-04-20 06:40:47 GMT 50.478081 -1.358073 14,375 35 288 -896
2019-04-20 06:40:43 GMT 50.473518 -1.363121 14,425 35 288 -896
2019-04-20 06:40:40 GMT 50.470352 -1.366610 14,475 35 289 -896
2019-04-20 06:40:37 GMT 50.467072 -1.370328 14,500 35 291 -896
2019-04-20 06:40:33 GMT 50.461395 -1.376688 14,625 35 291 -896
2019-04-20 06:40:30 GMT 50.459087 -1.379230 14,625 35 293 -896
2019-04-20 06:40:26 GMT 50.455318 -1.383387 14,675 35 294 -896
2019-04-20 06:40:22 GMT 50.450226 -1.389048 14,725 35 294 -896
2019-04-20 06:40:19 GMT 50.447590 -1.392072 14,800 35 295 -896
2019-04-20 06:40:16 GMT 50.442810 -1.397360 14,875 35 294 -896
2019-04-20 06:40:12 GMT 50.438232 -1.402464 14,925 35 296 -704
2019-04-20 06:40:09 GMT 50.435898 -1.405094 15,000 35 296 -64
2019-04-20 06:40:06 GMT 50.433014 -1.408274 14,975 35 296 -448
2019-04-20 06:40:02 GMT 50.426872 -1.415158 15,000 35 296 0
2019-04-20 06:39:59 GMT 50.423943 -1.418350 15,000 35 296 0
2019-04-20 06:39:55 GMT 50.420380 -1.422368 15,000 35 296 0
2019-04-20 06:39:51 GMT 50.415573 -1.427717 15,000 35 296 0
2019-04-20 06:39:48 GMT 50.412689 -1.430969 15,000 35 296 0
2019-04-20 06:39:45 GMT 50.409439 -1.434583 15,000 35 296 0
2019-04-20 06:39:42 GMT 50.405647 -1.438764 15,000 35 296 0
2019-04-20 06:39:38 GMT 50.400291 -1.444776 15,000 35 296 0
2019-04-20 06:39:34 GMT 50.397079 -1.448316 15,000 35 296 0
2019-04-20 06:39:31 GMT 50.392517 -1.453462 15,000 35 296 0
2019-04-20 06:39:27 GMT 50.388935 -1.457396 15,000 35 296 0
2019-04-20 06:39:23 GMT 50.384354 -1.462483 15,000 35 295 0
2019-04-20 06:39:20 GMT 50.381012 -1.466169 15,000 35 295 0
2019-04-20 06:39:17 GMT 50.377808 -1.469783 15,000 35 295 0
2019-04-20 06:39:14 GMT 50.370117 -1.478312 15,000 35 295 0
2019-04-20 06:39:10 GMT 50.370117 -1.478312 15,000 35 295 0
2019-04-20 06:39:07 GMT 50.365517 -1.483377 15,000 35 295 0
2019-04-20 06:39:03 GMT 50.362400 -1.486866 15,000 35 295 0
2019-04-20 06:39:00 GMT 50.359634 -1.489948 15,000 35 295 0
2019-04-20 06:38:57 GMT 50.355194 -1.494936 15,000 35 295 0
2019-04-20 06:38:53 GMT 50.351852 -1.498622 15,000 35 294 0
2019-04-20 06:38:50 GMT 50.348389 -1.502455 15,000 35 295 0
2019-04-20 06:38:47 GMT 50.344482 -1.506789 15,000 35 295 0
2019-04-20 06:38:44 GMT 50.341728 -1.509878 15,000 35 295 0
2019-04-20 06:38:40 GMT 50.337170 -1.514926 15,000 35 294 0
2019-04-20 06:38:37 GMT 50.333588 -1.518860 15,000 35 295 0
2019-04-20 06:38:33 GMT 50.328598 -1.524425 15,000 35 294 0
2019-04-20 06:38:29 GMT 50.324459 -1.528955 15,000 35 295 0
2019-04-20 06:38:26 GMT 50.320496 -1.533388 15,000 35 295 0
2019-04-20 06:38:23 GMT 50.318359 -1.535785 15,000 35 295 0
2019-04-20 06:38:20 GMT 50.313938 -1.540684 15,000 35 295 0
2019-04-20 06:38:17 GMT 50.311005 -1.543876 15,000 35 295 0
2019-04-20 06:38:14 GMT 50.307587 -1.547699 15,000 35 294 0
2019-04-20 06:38:08 GMT 50.296921 -1.559553 15,000 35 294 0
2019-04-20 06:38:04 GMT 50.296463 -1.559986 15,000 35 294 0
2019-04-20 06:37:58 GMT 50.289825 -1.567408 15,000 35 294 0
2019-04-20 06:37:55 GMT 50.282501 -1.575454 15,000 35 294 0
2019-04-20 06:37:51 GMT 50.282501 -1.575454 15,000 35 294 0
2019-04-20 06:37:48 GMT 50.279160 -1.579140 15,000 35 294 0
2019-04-20 06:37:44 GMT 50.274628 -1.584200 15,000 35 294 0
2019-04-20 06:37:37 GMT 50.267292 -1.592275 15,000 35 293 0
2019-04-20 06:37:33 GMT 50.262222 -1.597933 15,000 35 293 0
2019-04-20 06:37:27 GMT 50.254349 -1.606606 15,000 35 293 0
2019-04-20 06:37:24 GMT 50.252769 -1.608309 15,000 35 293 0
2019-04-20 06:37:21 GMT 50.244247 -1.617663 15,000 35 293 0
2019-04-20 06:37:18 GMT 50.244247 -1.617663 15,000 35 293 0
2019-04-20 06:37:15 GMT 50.242126 -1.620050 15,000 35 293 0
2019-04-20 06:37:11 GMT 50.237591 -1.625012 15,000 35 293 0
2019-04-20 06:37:07 GMT 50.232845 -1.630282 15,000 35 293 0
2019-04-20 06:37:03 GMT 50.228748 -1.634810 15,000 35 293 0
2019-04-20 06:37:00 GMT 50.226517 -1.637180 15,000 35 293 0
2019-04-20 06:36:56 GMT 50.220657 -1.643685 15,000 35 293 0
2019-04-20 06:36:52 GMT 50.216782 -1.647949 15,000 35 293 0
2019-04-20 06:36:49 GMT 50.213013 -1.652106 15,000 35 293 0
2019-04-20 06:36:46 GMT 50.210037 -1.655394 15,000 35 293 0
2019-04-20 06:36:43 GMT 50.206680 -1.659010 15,000 35 293 0
2019-04-20 06:36:40 GMT 50.199600 -1.666814 15,000 35 293 0
2019-04-20 06:36:37 GMT 50.199600 -1.666814 15,000 35 293 0
2019-04-20 06:36:33 GMT 50.196533 -1.670283 15,000 35 293 0
2019-04-20 06:36:30 GMT 50.192093 -1.675126 15,000 35 293 0
2019-04-20 06:36:26 GMT 50.186325 -1.681486 15,000 35 293 0
2019-04-20 06:36:22 GMT 50.183453 -1.684620 15,000 35 293 0
2019-04-20 06:36:19 GMT 50.180099 -1.688281 15,000 35 293 0
2019-04-20 06:36:16 GMT 50.176701 -1.692043 15,000 35 293 0
2019-04-20 06:36:13 GMT 50.173817 -1.695235 15,000 35 293 0
2019-04-20 06:36:09 GMT 50.164925 -1.704959 15,000 35 294 0
2019-04-20 06:36:06 GMT 50.164925 -1.704959 15,000 35 294 0
2019-04-20 06:36:03 GMT 50.162155 -1.708013 15,000 35 294 0
2019-04-20 06:35:59 GMT 50.158035 -1.712531 15,000 35 294 0
2019-04-20 06:35:54 GMT 50.151489 -1.719794 15,000 35 294 0
2019-04-20 06:35:48 GMT 50.146629 -1.725150 15,000 35 294 0
2019-04-20 06:35:45 GMT 50.142609 -1.729552 15,000 35 294 0
2019-04-20 06:35:41 GMT 50.138535 -1.734033 15,000 35 294 0
2019-04-20 06:35:38 GMT 50.135082 -1.737844 15,000 35 294 0
2019-04-20 06:35:34 GMT 50.129173 -1.744302 15,000 35 293 0
2019-04-20 06:35:31 GMT 50.126286 -1.747494 15,000 35 293 0
2019-04-20 06:35:28 GMT 50.122971 -1.751091 15,000 35 293 0
2019-04-20 06:35:23 GMT 50.113438 -1.761598 15,000 35 293 0
2019-04-20 06:35:20 GMT 50.113438 -1.761598 15,000 35 293 0
2019-04-20 06:35:17 GMT 50.111755 -1.763378 15,000 35 293 0
2019-04-20 06:35:13 GMT 50.106766 -1.768871 15,000 35 293 0
2019-04-20 06:35:10 GMT 50.103989 -1.771917 15,000 35 293 0
2019-04-20 06:35:07 GMT 50.100124 -1.776148 15,000 35 294 0
2019-04-20 06:35:04 GMT 50.096558 -1.780074 15,000 35 293 0
2019-04-20 06:35:00 GMT 50.092575 -1.784411 15,000 35 293 0
2019-04-20 06:34:56 GMT 50.082481 -1.795522 15,000 35 294 0
2019-04-20 06:34:52 GMT 50.082481 -1.795522 15,000 35 293 0
2019-04-20 06:34:46 GMT 50.076691 -1.801830 15,000 35 293 0
2019-04-20 06:34:43 GMT 50.073807 -1.804938 15,000 35 293 0
2019-04-20 06:34:40 GMT 50.070145 -1.808986 15,000 35 293 0
2019-04-20 06:34:37 GMT 50.066837 -1.812596 15,000 35 294 0
2019-04-20 06:34:34 GMT 50.063828 -1.815852 15,000 35 293 0
2019-04-20 06:34:31 GMT 50.060394 -1.819611 15,000 35 294 0
2019-04-20 06:34:27 GMT 50.055714 -1.824770 15,000 35 294 0
2019-04-20 06:34:24 GMT 50.053253 -1.827417 15,000 35 294 0
2019-04-20 06:34:21 GMT 50.049381 -1.831673 15,000 35 294 0
2019-04-20 06:34:18 GMT 50.046249 -1.835078 15,000 35 294 0
2019-04-20 06:34:13 GMT 50.040573 -1.841222 15,000 35 294 0
2019-04-20 06:34:10 GMT 50.037460 -1.844691 15,000 35 294 0
2019-04-20 06:34:07 GMT 50.034439 -1.847944 15,000 35 294 0
2019-04-20 06:34:04 GMT 50.031086 -1.851567 15,000 35 294 0
2019-04-20 06:34:01 GMT 50.025871 -1.857283 15,000 35 294 0
2019-04-20 06:33:57 GMT 50.021404 -1.862183 15,000 35 294 0
2019-04-20 06:33:52 GMT 50.012512 -1.871868 15,000 35 294 0
2019-04-20 06:33:48 GMT 50.012512 -1.871868 15,000 35 294 0
2019-04-20 06:33:45 GMT 50.009583 -1.875048 15,000 35 294 0
2019-04-20 06:33:42 GMT 50.006367 -1.878588 15,000 35 295 0
2019-04-20 06:33:38 GMT 50.001339 -1.884007 15,000 35 295 0
2019-04-20 06:33:35 GMT 49.998081 -1.887570 15,000 35 295 0
2019-04-20 06:33:30 GMT 49.991703 -1.894474 15,000 35 295 0
2019-04-20 06:33:26 GMT 49.987793 -1.898779 15,000 35 295 0
2019-04-20 06:33:22 GMT 49.983322 -1.903604 15,000 35 295 0
2019-04-20 06:33:19 GMT 49.979874 -1.907429 15,000 35 295 0
2019-04-20 06:33:16 GMT 49.976944 -1.910537 15,000 35 295 0
2019-04-20 06:33:12 GMT 49.972153 -1.915778 15,000 34 296 0
2019-04-20 06:33:08 GMT 49.967636 -1.920677 15,000 34 296 0
2019-04-20 06:33:04 GMT 49.963631 -1.925057 15,000 34 296 0
2019-04-20 06:32:59 GMT 49.957764 -1.931425 15,000 34 296 0
2019-04-20 06:32:56 GMT 49.954880 -1.934533 15,000 34 296 0
2019-04-20 06:32:53 GMT 49.951584 -1.938075 15,000 34 296 0
2019-04-20 06:32:49 GMT 49.946228 -1.943930 15,000 34 296 0
2019-04-20 06:32:45 GMT 49.938496 -1.952300 15,000 34 296 0
2019-04-20 06:32:41 GMT 49.937328 -1.953562 15,000 34 296 0
2019-04-20 06:32:37 GMT 49.931854 -1.959469 15,000 34 296 0
2019-04-20 06:32:31 GMT 49.926250 -1.965588 15,000 35 295 0
2019-04-20 06:32:27 GMT 49.922333 -1.969805 15,000 35 295 0
2019-04-20 06:32:23 GMT 49.917034 -1.975535 15,000 35 295 0
2019-04-20 06:32:20 GMT 49.913818 -1.979057 15,000 34 295 0
2019-04-20 06:32:16 GMT 49.908875 -1.984406 15,000 35 295 0
2019-04-20 06:32:11 GMT 49.902924 -1.990838 15,000 34 295 0
2019-04-20 06:32:06 GMT 49.897995 -1.996171 15,000 34 295 0
2019-04-20 06:32:02 GMT 49.892303 -2.002331 15,000 34 295 0
2019-04-20 06:31:57 GMT 49.888596 -2.006378 15,000 34 295 -64
2019-04-20 06:31:54 GMT 49.884262 -2.011092 15,000 34 295 0
2019-04-20 06:31:50 GMT 49.880211 -2.015397 15,000 34 295 0
2019-04-20 06:31:45 GMT 49.874859 -2.021187 15,000 34 295 0
2019-04-20 06:31:41 GMT 49.870388 -2.026013 15,000 34 295 0
2019-04-20 06:31:37 GMT 49.865593 -2.031209 15,000 35 294 0
2019-04-20 06:31:34 GMT 49.862045 -2.035073 15,000 35 294 0
2019-04-20 06:31:30 GMT 49.857216 -2.040265 15,000 34 293 0
2019-04-20 06:31:27 GMT 49.854465 -2.043234 15,000 34 293 0
2019-04-20 06:31:23 GMT 49.850647 -2.047360 15,000 34 293 0
2019-04-20 06:31:19 GMT 49.846413 -2.051919 15,000 34 293 0
2019-04-20 06:31:16 GMT 49.841949 -2.056756 15,000 34 259 64
2019-04-20 06:31:12 GMT 49.837189 -2.061888 15,000 34 292 0
2019-04-20 06:31:09 GMT 49.834728 -2.064539 15,000 34 292 0
2019-04-20 06:31:03 GMT 49.828537 -2.071284 15,000 34 292 0
2019-04-20 06:30:59 GMT 49.823418 -2.076787 15,000 34 292 0
2019-04-20 06:30:56 GMT 49.820023 -2.080464 15,000 34 292 0
2019-04-20 06:30:53 GMT 49.816040 -2.084800 15,000 34 292 0
2019-04-20 06:30:49 GMT 49.812340 -2.088739 15,000 34 292 0
2019-04-20 06:30:46 GMT 49.809498 -2.091856 15,000 34 286 0
2019-04-20 06:30:43 GMT 49.805912 -2.095642 15,000 34 292 0
2019-04-20 06:30:40 GMT 49.802933 -2.098908 15,000 34 293 0
2019-04-20 06:30:37 GMT 49.793903 -2.108633 15,000 35 294 0
2019-04-20 06:30:32 GMT 49.793903 -2.108633 15,000 34 259 64
2019-04-20 06:30:29 GMT 49.790680 -2.112122 15,000 35 294 0
2019-04-20 06:30:26 GMT 49.787338 -2.115736 15,000 34 295 0
2019-04-20 06:30:23 GMT 49.782852 -2.120578 15,000 34 293 0
2019-04-20 06:30:20 GMT 49.780655 -2.122963 15,000 34 293 0
2019-04-20 06:30:17 GMT 49.776726 -2.127191 15,000 34 293 64
2019-04-20 06:30:12 GMT 49.766342 -2.138325 15,000 34 290 64
2019-04-20 06:30:07 GMT 49.766342 -2.138325 15,000 34 290 64
2019-04-20 06:30:04 GMT 49.762070 -2.142984 15,000 34 288 0
2019-04-20 06:30:01 GMT 49.759644 -2.145587 15,000 34 287 0
2019-04-20 06:29:57 GMT 49.755173 -2.150351 15,000 34 259 64
2019-04-20 06:29:54 GMT 49.751450 -2.154404 15,000 34 286 0
2019-04-20 06:29:51 GMT 49.748840 -2.157180 15,000 34 286 0
2019-04-20 06:29:46 GMT 49.742661 -2.163801 15,000 34 284 0
2019-04-20 06:29:43 GMT 49.740414 -2.166237 15,000 34 284 0
2019-04-20 06:29:40 GMT 49.736847 -2.170089 15,000 34 282 0
2019-04-20 06:29:36 GMT 49.732544 -2.174715 15,000 34 281 64
2019-04-20 06:29:33 GMT 49.728607 -2.178907 15,000 34 280 0
2019-04-20 06:29:30 GMT 49.725952 -2.181798 15,000 34 280 0
2019-04-20 06:29:27 GMT 49.722565 -2.185412 15,000 34 277 64
2019-04-20 06:29:22 GMT 49.717606 -2.190733 15,000 34 276 0
2019-04-20 06:29:19 GMT 49.714855 -2.193628 15,000 34 263 64
2019-04-20 06:29:16 GMT 49.711319 -2.197414 15,000 34 259 64
2019-04-20 06:29:13 GMT 49.707596 -2.201423 15,000 34 270 64
2019-04-20 06:29:10 GMT 49.704895 -2.204277 15,000 34 271 64
2019-04-20 06:29:06 GMT 49.701370 -2.208035 15,000 34 269 64
2019-04-20 06:29:03 GMT 49.697296 -2.212372 15,000 34 266 64
2019-04-20 06:29:00 GMT 49.694374 -2.215527 15,000 34 264 64
2019-04-20 06:28:57 GMT 49.690601 -2.219461 15,000 34 259 64
2019-04-20 06:28:50 GMT 49.684086 -2.226439 15,000 34 255 64
2019-04-20 06:28:46 GMT 49.681046 -2.229646 15,000 34 254 64
2019-04-20 06:28:42 GMT 49.676743 -2.234128 14,975 34 242 64
2019-04-20 06:28:39 GMT 49.674263 -2.236683 15,000 34 248 64
2019-04-20 06:28:34 GMT 49.666023 -2.245368 14,900 34 239 64
2019-04-20 06:28:31 GMT 49.664116 -2.247372 14,975 34 235 128
2019-04-20 06:28:25 GMT 49.661041 -2.250564 14,975 34 233 128
2019-04-20 06:28:22 GMT 49.657642 -2.254127 14,975 34 228 384
2019-04-20 06:28:18 GMT 49.654541 -2.257474 14,950 35 219 1024
2019-04-20 06:28:15 GMT 49.652756 -2.259353 14,925 35 222 832
2019-04-20 06:28:10 GMT 49.648006 -2.264594 14,850 36 216 1152
2019-04-20 06:28:07 GMT 49.646099 -2.266747 14,800 36 215 1280
2019-04-20 06:28:03 GMT 49.642410 -2.271062 13,675 37 199 2112
2019-04-20 06:27:58 GMT 49.638611 -2.275543 14,575 37 209 1856
2019-04-20 06:27:55 GMT 49.636604 -2.277882 14,475 37 207 1984
2019-04-20 06:27:50 GMT 49.632229 -2.283078 14,350 37 206 2112
2019-04-20 06:27:47 GMT 49.630600 -2.285012 14,275 37 206 2112
2019-04-20 06:27:43 GMT 49.627525 -2.288645 14,075 37 205 2048
2019-04-20 06:27:38 GMT 49.623287 -2.293619 13,900 37 204 1856
2019-04-20 06:27:35 GMT 49.621193 -2.296143 13,800 37 204 1856
2019-04-20 06:27:28 GMT 49.616306 -2.301933 13,200 37 199 2048
2019-04-20 06:27:25 GMT 49.613464 -2.305199 13,475 37 200 1984
2019-04-20 06:27:20 GMT 49.610115 -2.309207 12,175 37 199 2112
2019-04-20 06:27:17 GMT 49.608124 -2.311538 13,150 37 198 2048
2019-04-20 06:27:14 GMT 49.605789 -2.314284 12,975 37 196 2240
2019-04-20 06:27:09 GMT 49.601501 -2.319303 12,975 37 197 2048
2019-04-20 06:27:06 GMT 49.600479 -2.320491 12,550 37 195 2368
2019-04-20 06:27:02 GMT 49.596954 -2.324620 12,675 37 196 2304
2019-04-20 06:26:59 GMT 49.595173 -2.326726 12,575 37 195 2432
2019-04-20 06:26:56 GMT 49.592926 -2.329391 12,450 37 196 2368
2019-04-20 06:26:52 GMT 49.587479 -2.335823 12,175 37 194 1920
2019-04-20 06:26:48 GMT 49.587116 -2.336228 12,150 37 196 1984
2019-04-20 06:26:44 GMT 49.583393 -2.340608 12,000 37 193 2048
2019-04-20 06:26:38 GMT 49.579468 -2.345220 11,800 37 191 2304
2019-04-20 06:26:35 GMT 49.578133 -2.346769 11,725 37 191 2432
2019-04-20 06:26:32 GMT 49.575668 -2.349701 11,575 37 191 2688
2019-04-20 06:26:29 GMT 49.573013 -2.352809 11,400 37 191 2880
2019-04-20 06:26:23 GMT 49.569523 -2.356864 11,175 37 194 3072
2019-04-20 06:26:19 GMT 49.566261 -2.360724 10,950 37 196 3008
2019-04-20 06:26:14 GMT 49.563236 -2.364288 10,725 37 197 2752
2019-04-20 06:26:11 GMT 49.561111 -2.366831 10,600 37 199 2624
2019-04-20 06:26:08 GMT 49.558861 -2.369484 10,325 37 199 2624
2019-04-20 06:26:02 GMT 49.554382 -2.374709 9,650 37 199 2624
2019-04-20 06:25:58 GMT 49.551498 -2.378106 9,800 37 197 2560
2019-04-20 06:25:52 GMT 49.546898 -2.383514 9,750 37 197 2560
2019-04-20 06:25:48 GMT 49.544010 -2.386928 9,575 37 197 2624
2019-04-20 06:25:42 GMT 49.539494 -2.392199 9,000 37 196 2432
2019-04-20 06:25:37 GMT 49.535583 -2.396727 9,100 37 195 2368
2019-04-20 06:25:32 GMT 49.532364 -2.400585 8,900 37 194 2368
2019-04-20 06:25:26 GMT 49.528473 -2.405066 8,675 37 194 2240
2019-04-20 06:25:21 GMT 49.524811 -2.409403 8,500 37 191 2112
2019-04-20 06:25:16 GMT 49.521248 -2.413578 8,325 37 189 2112
2019-04-20 06:25:11 GMT 49.517990 -2.417426 8,150 37 184 2368
2019-04-20 06:25:04 GMT 49.513054 -2.423153 7,850 37 182 2944
2019-04-20 06:24:59 GMT 49.509750 -2.427039 7,700 37 183 3008
2019-04-20 06:24:55 GMT 49.507000 -2.430280 7,400 37 184 2624
2019-04-20 06:24:51 GMT 49.504021 -2.433769 7,150 40 182 3392
2019-04-20 06:24:45 GMT 49.500183 -2.438676 6,900 40 182 3392
2019-04-20 06:24:40 GMT 49.497318 -2.442528 6,650 41 184 3456
2019-04-20 06:24:34 GMT 49.493595 -2.447576 6,250 41 187 3200
2019-04-20 06:24:31 GMT 49.490662 -2.451541 6,075 41 188 2880
2019-04-20 06:24:24 GMT 49.486519 -2.457077 5,750 42 189 3520
2019-04-20 06:24:20 GMT 49.483818 -2.460863 5,500 42 190 3904
2019-04-20 06:24:13 GMT 49.479492 -2.466792 5,150 40 194 3904
2019-04-20 06:24:09 GMT 49.476555 -2.470291 4,800 35 199 3712
2019-04-20 06:24:05 GMT 49.473343 -2.473260 4,450 24 204 3584
2019-04-20 06:24:02 GMT 49.471294 -2.474745 4,450 24 204 3584
2019-04-20 06:23:59 GMT 49.468552 -2.476405 4,225 19 208 3264
2019-04-20 06:23:52 GMT 49.461987 -2.479941 3,850 21 209 2880
2019-04-20 06:23:49 GMT 49.459190 -2.481722 3,700 23 209 3008
2019-04-20 06:23:43 GMT 49.453537 -2.485874 3,325 28 209 2560
2019-04-20 06:23:39 GMT 49.450790 -2.488548 3,250 37 206 1664
2019-04-20 06:23:32 GMT 49.443504 -2.498647 3,050 47 198 1792
2019-04-20 06:23:29 GMT 49.443504 -2.498647 2,975 49 197 2112
2019-04-20 06:23:21 GMT 49.439548 -2.507852 2,700 66 193 2048
2019-04-20 06:23:18 GMT 49.438663 -2.511118 2,600 71 191 1984
2019-04-20 06:23:14 GMT 49.437637 -2.517205 2,400 84 185 2560
2019-04-20 06:23:08 GMT 49.437057 -2.524253 2,250 84 187 2560
2019-04-20 06:23:02 GMT 49.436520 -2.531829 1,900 84 185 2560
2019-04-20 06:22:59 GMT 49.436054 -2.537842 1,800 84 185 2560
2019-04-20 06:22:53 GMT 49.435684 -2.544152 1,575 86 179 1728
2019-04-20 06:22:47 GMT 49.435310 -2.552465 1,475 86 182 1536
2019-04-20 06:22:43 GMT 49.435123 -2.556994 1,325 87 175 1856
2019-04-20 06:22:38 GMT 49.435032 -2.562635 1,050 90 169 2112
2019-04-20 06:18:15 GMT 49.433647 -2.594611 0 267 17 0
2019-04-20 06:17:58 GMT 49.433704 -2.592900 0 270 13 0
2019-04-20 06:17:55 GMT 49.433704 -2.592588 0 270 12 0
2019-04-20 06:17:45 GMT 49.433727 -2.591834 0 267 9 0
2019-04-20 06:17:34 GMT 49.433739 -2.591252 0 270 8 0
2019-04-20 06:17:25 GMT 49.433670 -2.590788 0 320 6 0
2019-04-20 06:17:12 GMT 49.433437 -2.590695 0 50 4 0
2019-04-20 06:17:02 GMT 49.433403 -2.590788 0 78 0 0
2019-04-20 06:16:16 GMT 49.433403 -2.590806 0 78 0 0
2019-04-20 06:15:36 GMT 49.433403 -2.590788 0 78 0 0
2019-04-20 06:15:26 GMT 49.433395 -2.590804 0 78 0 0
2019-04-20 06:15:11 GMT 49.433403 -2.590806 0 78 0 0
2019-04-20 06:14:51 GMT 49.433395 -2.590804 0 78 0 0
2019-04-20 06:14:46 GMT 49.433392 -2.590806 0 78 0 0
2019-04-20 06:14:15 GMT 49.433395 -2.590804 0 78 0 0
2019-04-20 06:14:05 GMT 49.433395 -2.590786 0 78 0 0
2019-04-20 06:13:55 GMT 49.433392 -2.590788 0 78 0 0
2019-04-20 06:13:45 GMT 49.433395 -2.590786 0 78 0 0
2019-04-20 06:11:01 GMT 49.433403 -2.590788 0 78 0 0
2019-04-20 06:10:56 GMT 49.433395 -2.590786 0 78 0 0
2019-04-20 06:10:36 GMT 49.433395 -2.590804 0 78 0 0
2019-04-20 06:10:26 GMT 49.433403 -2.590788 0 78 0 0
2019-04-20 06:09:56 GMT 49.433392 -2.590806 0 78 0 0
2019-04-20 06:09:36 GMT 49.433384 -2.590804 0 78 0 0
2019-04-20 06:09:26 GMT 49.433380 -2.590806 0 78 0 0
2019-04-20 06:09:11 GMT 49.433392 -2.590806 0 78 0 0
2019-04-20 06:08:56 GMT 49.433384 -2.590804 0 78 0 0
2019-04-20 06:08:51 GMT 49.433403 -2.590788 0 78 0 0
2019-04-20 06:08:31 GMT 49.433395 -2.590786 0 78 0 0
2019-04-20 06:08:21 GMT 49.433392 -2.590806 0 78 0 0
2019-04-20 06:08:06 GMT 49.433395 -2.590786 0 78 0 0
2019-04-20 06:07:49 GMT 49.433395 -2.590804 0 78 0 0
2019-04-20 06:07:39 GMT 49.433392 -2.590806 0 78 0 0
2019-04-20 06:07:29 GMT 49.433384 -2.590804 0 78 0 0
2019-04-20 06:07:17 GMT 49.433395 -2.590804 0 78 0 0
2019-04-20 06:07:07 GMT 49.433395 -2.590786 0 78 0 0

Making use of Plane Finder data

You are free to use the raw flight data, aircraft information and images provided in this report for your own purposes provided the data is correctly attributed to Plane Finder. We ask that you please credit Plane Finder and link to planefinder.net in close proximity to the content.

Optionally one of the following logos (no smaller then 150x24px) can be used and must link to planefinder.net

Embedding the Plane Finder map

You are welcome to embed the Plane Finder playback map on your website to offer visitors a more interactive experience. We suggest using the following HTML code:

<iframe src="//planefinder.net/data/report/N525HA-N525HA-7700-squawk-2019-04-20/map" width="800" height="600" seamless="seamless"></iframe>

Where our data comes from

Plane Finder has a global network of data feeds and antenna radars that receive data broadcast directly from aircraft. The primary technologies used are ADS-B and MLAT. We also show feeds from the FAA and a FLARM glider feed.

Click here to find out more about the Plane Finder network.

How we collect our data